Time,TemperatureF,DewpointF,PressureIn,WindDirection,WindDirectionDegrees,WindSpeedMPH,WindSpeedGustMPH,Humidity,HourlyPrecipIn,Conditions,Clouds,dailyrainin,SoftwareType,DateUTC
2013-09-10 00:00:00,69.3,59.5,30.15,East,95,0.0,0.0,71,0.00,,---,0.00,VWS V14.01,2013-09-10 04:00:00,
2013-09-10 00:01:00,69.3,59.5,30.15,East,95,0.0,0.0,71,0.00,,---,0.00,VWS V14.01,2013-09-10 04:01:00,
2013-09-10 00:06:00,69.4,60.0,30.15,East,95,0.0,0.0,72,0.00,,---,0.00,VWS V14.01,2013-09-10 04:06:00,
2013-09-10 00:11:00,69.4,60.0,30.15,East,94,0.0,0.0,72,0.00,,---,0.00,VWS V14.01,2013-09-10 04:11:00,
2013-09-10 00:12:00,69.4,60.0,30.15,East,94,0.0,0.0,72,0.00,,---,0.00,VWS V14.01,2013-09-10 04:12:00,
2013-09-10 00:16:00,69.4,60.0,30.15,East,89,0.0,0.0,72,0.00,,---,0.00,VWS V14.01,2013-09-10 04:16:00,
2013-09-10 00:17:00,69.4,60.0,30.15,North,349,0.0,0.0,72,0.00,,---,0.00,VWS V14.01,2013-09-10 04:17:00,
2013-09-10 00:21:00,69.4,60.4,30.15,North,349,0.0,0.0,73,0.00,,---,0.00,VWS V14.01,2013-09-10 04:21:00,
2013-09-10 00:22:00,69.4,60.4,30.15,North,349,0.0,0.0,73,0.00,,---,0.00,VWS V14.01,2013-09-10 04:22:00,
2013-09-10 00:26:00,69.4,60.4,30.15,North,349,0.0,0.0,73,0.00,,---,0.00,VWS V14.01,2013-09-10 04:26:00,
2013-09-10 00:27:00,69.4,60.8,30.15,North,349,0.0,0.0,74,0.00,,---,0.00,VWS V14.01,2013-09-10 04:27:00,
2013-09-10 00:31:00,69.6,61.3,30.15,North,349,0.0,0.0,75,0.00,,---,0.00,VWS V14.01,2013-09-10 04:31:00,
2013-09-10 00:32:00,69.6,61.3,30.15,North,349,0.0,0.0,75,0.00,,---,0.00,VWS V14.01,2013-09-10 04:32:00,
2013-09-10 00:36:00,69.6,61.0,30.15,North,349,0.0,0.0,74,0.00,,---,0.00,VWS V14.01,2013-09-10 04:36:00,
2013-09-10 00:37:00,69.6,61.0,30.15,North,349,0.0,0.0,74,0.00,,---,0.00,VWS V14.01,2013-09-10 04:37:00,
2013-09-10 00:38:00,69.6,61.0,30.15,North,349,0.0,0.0,74,0.00,,---,0.00,VWS V14.01,2013-09-10 04:38:00,
2013-09-10 00:41:00,69.6,61.0,30.15,North,349,0.0,0.0,74,0.00,,---,0.00,VWS V14.01,2013-09-10 04:41:00,
2013-09-10 00:42:00,69.6,61.0,30.15,North,349,0.0,0.0,74,0.00,,---,0.00,VWS V14.01,2013-09-10 04:42:00,
2013-09-10 00:43:00,69.6,61.0,30.15,North,349,0.0,0.0,74,0.00,,---,0.00,VWS V14.01,2013-09-10 04:43:00,
2013-09-10 00:46:00,69.4,60.8,30.15,North,349,0.0,0.0,74,0.00,,---,0.00,VWS V14.01,2013-09-10 04:46:00,
2013-09-10 00:47:00,69.4,60.8,30.15,North,353,0.0,0.0,74,0.00,,---,0.00,VWS V14.01,2013-09-10 04:47:00,
2013-09-10 00:48:00,69.4,61.2,30.15,North,353,0.0,0.0,75,0.00,,---,0.00,VWS V14.01,2013-09-10 04:48:00,
2013-09-10 00:51:00,69.6,61.7,30.15,North,353,0.0,0.0,76,0.00,,---,0.00,VWS V14.01,2013-09-10 04:51:00,
2013-09-10 00:52:00,69.6,61.7,30.15,North,353,0.0,0.0,76,0.00,,---,0.00,VWS V14.01,2013-09-10 04:52:00,
2013-09-10 00:53:00,69.6,61.7,30.15,North,353,0.0,0.0,76,0.00,,---,0.00,VWS V14.01,2013-09-10 04:53:00,
2013-09-10 00:56:00,69.6,61.7,30.15,North,353,0.0,0.0,76,0.00,,---,0.00,VWS V14.01,2013-09-10 04:56:00,
2013-09-10 00:57:00,69.6,61.7,30.15,North,353,0.0,0.0,76,0.00,,---,0.00,VWS V14.01,2013-09-10 04:57:00,
2013-09-10 00:58:00,69.6,61.7,30.15,North,353,0.0,0.0,76,0.00,,---,0.00,VWS V14.01,2013-09-10 04:58:00,
2013-09-10 01:01:00,69.4,61.2,30.15,North,353,0.0,0.0,75,0.00,,---,0.00,VWS V14.01,2013-09-10 05:01:00,
2013-09-10 01:02:00,69.4,61.2,30.15,North,353,0.0,0.0,75,0.00,,---,0.00,VWS V14.01,2013-09-10 05:02:00,
2013-09-10 01:03:00,69.4,61.5,30.15,North,353,0.0,0.0,76,0.00,,---,0.00,VWS V14.01,2013-09-10 05:03:00,
2013-09-10 01:06:00,69.4,61.5,30.15,North,353,0.0,0.0,76,0.00,,---,0.00,VWS V14.01,2013-09-10 05:06:00,
2013-09-10 01:07:00,69.4,61.5,30.15,North,353,0.0,0.0,76,0.00,,---,0.00,VWS V14.01,2013-09-10 05:07:00,
2013-09-10 01:09:00,69.3,61.4,30.15,North,353,0.0,0.0,76,0.00,,---,0.00,VWS V14.01,2013-09-10 05:09:00,
2013-09-10 01:11:00,69.3,61.4,30.15,North,353,0.0,0.0,76,0.00,,---,0.00,VWS V14.01,2013-09-10 05:11:00,
2013-09-10 01:12:00,69.3,61.8,30.15,North,353,0.0,0.0,77,0.00,,---,0.00,VWS V14.01,2013-09-10 05:12:00,
2013-09-10 01:14:00,69.4,61.9,30.15,North,353,0.0,0.0,77,0.00,,---,0.00,VWS V14.01,2013-09-10 05:14:00,
2013-09-10 01:16:00,69.4,62.3,30.15,North,353,0.0,0.0,78,0.00,,---,0.00,VWS V14.01,2013-09-10 05:16:00,
2013-09-10 01:17:00,69.4,62.3,30.15,North,353,0.0,0.0,78,0.00,,---,0.00,VWS V14.01,2013-09-10 05:17:00,
2013-09-10 01:19:00,69.6,62.5,30.15,North,353,0.0,0.0,78,0.00,,---,0.00,VWS V14.01,2013-09-10 05:19:00,
2013-09-10 01:21:00,69.6,62.5,30.15,North,353,0.0,0.0,78,0.00,,---,0.00,VWS V14.01,2013-09-10 05:21:00,
2013-09-10 01:22:00,69.6,62.5,30.15,North,353,0.0,0.0,78,0.00,,---,0.00,VWS V14.01,2013-09-10 05:22:00,
2013-09-10 01:24:00,69.4,61.9,30.15,North,353,0.0,0.0,77,0.00,,---,0.00,VWS V14.01,2013-09-10 05:24:00,
2013-09-10 01:26:00,69.4,62.3,30.15,North,353,0.0,0.0,78,0.00,,---,0.00,VWS V14.01,2013-09-10 05:26:00,
2013-09-10 01:27:00,69.4,62.3,30.15,North,353,0.0,0.0,78,0.00,,---,0.00,VWS V14.01,2013-09-10 05:27:00,
2013-09-10 01:28:00,69.4,62.3,30.15,North,353,0.0,0.0,78,0.00,,---,0.00,VWS V14.01,2013-09-10 05:28:00,
2013-09-10 01:29:00,69.4,62.3,30.15,North,353,0.0,0.0,78,0.00,,---,0.00,VWS V14.01,2013-09-10 05:29:00,
2013-09-10 01:30:00,69.4,62.3,30.15,North,353,0.0,0.0,78,0.00,,---,0.00,VWS V14.01,2013-09-10 05:30:00,
2013-09-10 01:31:00,69.6,62.8,30.15,North,353,0.0,0.0,79,0.00,,---,0.00,VWS V14.01,2013-09-10 05:31:00,
2013-09-10 01:32:00,69.6,62.8,30.15,North,353,0.0,0.0,79,0.00,,---,0.00,VWS V14.01,2013-09-10 05:32:00,
2013-09-10 01:33:00,69.6,62.8,30.15,North,353,0.0,0.0,79,0.00,,---,0.00,VWS V14.01,2013-09-10 05:33:00,
2013-09-10 01:35:00,69.6,62.8,30.15,North,353,0.0,0.0,79,0.00,,---,0.00,VWS V14.01,2013-09-10 05:35:00,
2013-09-10 01:36:00,69.8,63.0,30.15,North,353,0.0,0.0,79,0.00,,---,0.00,VWS V14.01,2013-09-10 05:36:00,
2013-09-10 01:37:00,69.8,63.0,30.15,North,353,0.0,0.0,79,0.00,,---,0.00,VWS V14.01,2013-09-10 05:37:00,
2013-09-10 01:38:00,69.8,63.0,30.15,North,353,0.0,0.0,79,0.00,,---,0.00,VWS V14.01,2013-09-10 05:38:00,
2013-09-10 01:40:00,69.8,63.0,30.18,North,353,0.0,0.0,79,0.00,,---,0.00,VWS V14.01,2013-09-10 05:40:00,
2013-09-10 01:41:00,69.8,63.0,30.18,North,353,0.0,0.0,79,0.00,,---,0.00,VWS V14.01,2013-09-10 05:41:00,
2013-09-10 01:42:00,69.8,63.0,30.18,North,353,0.0,0.0,79,0.00,,---,0.00,VWS V14.01,2013-09-10 05:42:00,
2013-09-10 01:43:00,69.8,63.0,30.18,North,353,0.0,0.0,79,0.00,,---,0.00,VWS V14.01,2013-09-10 05:43:00,
2013-09-10 01:45:00,70.0,63.2,30.18,North,353,0.0,0.0,79,0.00,,---,0.00,VWS V14.01,2013-09-10 05:45:00,
2013-09-10 01:46:00,70.0,63.2,30.18,North,353,0.0,0.0,79,0.00,,---,0.00,VWS V14.01,2013-09-10 05:46:00,
2013-09-10 01:47:00,69.8,63.0,30.18,North,353,0.0,0.0,79,0.00,,---,0.00,VWS V14.01,2013-09-10 05:47:00,
2013-09-10 01:48:00,69.8,63.0,30.18,North,353,0.0,0.0,79,0.00,,---,0.00,VWS V14.01,2013-09-10 05:48:00,
2013-09-10 01:50:00,69.8,63.0,30.18,North,353,0.0,0.0,79,0.00,,---,0.00,VWS V14.01,2013-09-10 05:50:00,
2013-09-10 01:51:00,69.8,63.0,30.18,North,353,0.0,0.0,79,0.00,,---,0.00,VWS V14.01,2013-09-10 05:51:00,
2013-09-10 01:52:00,69.8,62.6,30.18,North,353,0.0,0.0,78,0.00,,---,0.00,VWS V14.01,2013-09-10 05:52:00,
2013-09-10 01:53:00,69.8,62.6,30.15,North,353,0.0,0.0,78,0.00,,---,0.00,VWS V14.01,2013-09-10 05:53:00,
2013-09-10 01:55:00,69.8,63.0,30.15,North,353,0.0,0.0,79,0.00,,---,0.00,VWS V14.01,2013-09-10 05:55:00,
2013-09-10 01:56:00,69.8,63.0,30.15,North,353,0.0,0.0,79,0.00,,---,0.00,VWS V14.01,2013-09-10 05:56:00,
2013-09-10 01:57:00,69.8,63.0,30.15,North,353,0.0,0.0,79,0.00,,---,0.00,VWS V14.01,2013-09-10 05:57:00,
2013-09-10 01:59:00,69.8,63.0,30.15,North,353,0.0,0.0,79,0.00,,---,0.00,VWS V14.01,2013-09-10 05:59:00,
2013-09-10 02:00:00,69.8,63.0,30.15,North,353,0.0,0.0,79,0.00,,---,0.00,VWS V14.01,2013-09-10 06:00:00,
2013-09-10 02:01:00,69.8,63.0,30.15,North,353,0.0,0.0,79,0.00,,---,0.00,VWS V14.01,2013-09-10 06:01:00,
2013-09-10 02:02:00,69.8,63.0,30.15,North,353,0.0,0.0,79,0.00,,---,0.00,VWS V14.01,2013-09-10 06:02:00,
2013-09-10 02:04:00,69.8,63.0,30.15,North,353,0.0,0.0,79,0.00,,---,0.00,VWS V14.01,2013-09-10 06:04:00,
2013-09-10 02:05:00,69.8,63.0,30.15,North,353,0.0,0.0,79,0.00,,---,0.00,VWS V14.01,2013-09-10 06:05:00,
2013-09-10 02:06:00,69.8,63.0,30.15,North,353,0.0,0.0,79,0.00,,---,0.00,VWS V14.01,2013-09-10 06:06:00,
2013-09-10 02:07:00,69.8,63.0,30.15,North,353,0.0,0.0,79,0.00,,---,0.00,VWS V14.01,2013-09-10 06:07:00,
2013-09-10 02:09:00,69.8,63.4,30.15,North,353,0.0,0.0,80,0.00,,---,0.39,VWS V14.01,2013-09-10 06:09:00,
2013-09-10 02:10:00,69.8,63.4,30.15,North,353,0.0,0.0,80,0.00,,---,0.00,VWS V14.01,2013-09-10 06:10:00,
2013-09-10 02:11:00,69.8,63.4,30.15,North,353,0.0,0.0,80,0.00,,---,0.00,VWS V14.01,2013-09-10 06:11:00,
2013-09-10 02:13:00,69.8,63.4,30.15,North,353,0.0,0.0,80,0.00,,---,0.00,VWS V14.01,2013-09-10 06:13:00,
2013-09-10 02:14:00,69.8,63.4,30.15,North,353,3.1,3.1,80,0.00,,---,0.00,VWS V14.01,2013-09-10 06:14:00,
2013-09-10 02:16:00,69.8,63.4,30.15,North,0,0.0,3.1,80,0.00,,---,0.00,VWS V14.01,2013-09-10 06:16:00,
2013-09-10 02:18:00,69.8,63.4,30.15,North,0,0.0,0.0,80,0.00,,---,0.00,VWS V14.01,2013-09-10 06:18:00,
2013-09-10 02:19:00,69.8,63.4,30.15,North,0,0.0,0.0,80,0.00,,---,0.00,VWS V14.01,2013-09-10 06:19:00,
2013-09-10 02:21:00,69.8,63.4,30.15,North,0,0.0,0.0,80,0.00,,---,0.00,VWS V14.01,2013-09-10 06:21:00,
2013-09-10 02:22:00,69.8,63.4,30.15,North,0,0.0,0.0,80,0.00,,---,0.00,VWS V14.01,2013-09-10 06:22:00,
2013-09-10 02:23:00,69.8,63.4,30.15,North,0,0.0,0.0,80,0.00,,---,0.00,VWS V14.01,2013-09-10 06:23:00,
2013-09-10 02:25:00,69.8,63.4,30.15,North,0,0.0,0.0,80,0.00,,---,0.00,VWS V14.01,2013-09-10 06:25:00,
2013-09-10 02:26:00,69.8,63.4,30.15,North,0,0.0,0.0,80,0.00,,---,0.00,VWS V14.01,2013-09-10 06:26:00,
2013-09-10 02:27:00,69.8,63.4,30.15,North,0,0.0,0.0,80,0.00,,---,0.00,VWS V14.01,2013-09-10 06:27:00,
2013-09-10 02:28:00,69.8,63.4,30.15,North,0,0.0,0.0,80,0.00,,---,0.00,VWS V14.01,2013-09-10 06:28:00,
2013-09-10 02:31:00,69.8,63.4,30.15,North,0,0.0,0.0,80,0.00,,---,0.00,VWS V14.01,2013-09-10 06:31:00,
2013-09-10 02:32:00,69.8,63.4,30.15,North,0,0.0,0.0,80,0.00,,---,0.00,VWS V14.01,2013-09-10 06:32:00,
2013-09-10 02:33:00,69.6,63.2,30.15,North,0,0.0,0.0,80,0.00,,---,0.00,VWS V14.01,2013-09-10 06:33:00,
2013-09-10 02:36:00,69.6,63.2,30.15,North,0,0.0,0.0,80,0.00,,---,0.00,VWS V14.01,2013-09-10 06:36:00,
2013-09-10 02:37:00,69.6,63.2,30.15,North,0,0.0,0.0,80,0.00,,---,0.00,VWS V14.01,2013-09-10 06:37:00,
2013-09-10 02:38:00,69.6,63.2,30.15,North,0,0.0,0.0,80,0.00,,---,0.00,VWS V14.01,2013-09-10 06:38:00,
2013-09-10 02:41:00,69.4,63.0,30.15,North,0,0.0,0.0,80,0.00,,---,0.00,VWS V14.01,2013-09-10 06:41:00,
2013-09-10 02:42:00,69.4,63.4,30.15,North,0,0.0,0.0,81,0.00,,---,0.00,VWS V14.01,2013-09-10 06:42:00,
2013-09-10 02:43:00,69.4,63.4,30.15,North,0,0.0,0.0,81,0.00,,---,0.00,VWS V14.01,2013-09-10 06:43:00,
2013-09-10 02:46:00,69.6,63.9,30.15,North,0,0.0,0.0,82,0.00,,---,0.00,VWS V14.01,2013-09-10 06:46:00,
2013-09-10 02:47:00,69.6,63.9,30.15,North,0,0.0,0.0,82,0.00,,---,0.00,VWS V14.01,2013-09-10 06:47:00,
2013-09-10 02:48:00,69.6,63.9,30.15,North,0,0.0,0.0,82,0.00,,---,0.00,VWS V14.01,2013-09-10 06:48:00,
2013-09-10 02:51:00,69.6,63.5,30.15,North,0,0.0,0.0,81,0.00,,---,0.00,VWS V14.01,2013-09-10 06:51:00,
2013-09-10 02:52:00,69.6,63.5,30.15,North,0,0.0,0.0,81,0.00,,---,0.00,VWS V14.01,2013-09-10 06:52:00,
2013-09-10 02:53:00,69.6,63.5,30.15,North,0,0.0,0.0,81,0.00,,---,0.00,VWS V14.01,2013-09-10 06:53:00,
2013-09-10 02:54:00,69.6,63.5,30.15,North,0,0.0,0.0,81,0.00,,---,0.00,VWS V14.01,2013-09-10 06:54:00,
2013-09-10 02:56:00,69.8,63.7,30.15,North,0,0.0,0.0,81,0.00,,---,0.00,VWS V14.01,2013-09-10 06:56:00,
2013-09-10 02:57:00,69.8,63.7,30.15,North,0,0.0,0.0,81,0.00,,---,0.00,VWS V14.01,2013-09-10 06:57:00,
2013-09-10 02:58:00,69.8,63.7,30.15,North,0,0.0,0.0,81,0.00,,---,0.00,VWS V14.01,2013-09-10 06:58:00,
2013-09-10 02:59:00,69.8,63.7,30.15,North,0,0.0,0.0,81,0.00,,---,0.00,VWS V14.01,2013-09-10 06:59:00,
2013-09-10 03:01:00,69.8,63.7,30.15,North,0,0.0,0.0,81,0.00,,---,0.00,VWS V14.01,2013-09-10 07:01:00,
2013-09-10 03:02:00,69.8,63.7,30.15,North,0,0.0,0.0,81,0.00,,---,0.00,VWS V14.01,2013-09-10 07:02:00,
2013-09-10 03:03:00,69.8,63.7,30.15,North,0,0.0,0.0,81,0.00,,---,0.00,VWS V14.01,2013-09-10 07:03:00,
2013-09-10 03:04:00,69.8,63.7,30.15,North,0,0.0,0.0,81,0.00,,---,0.00,VWS V14.01,2013-09-10 07:04:00,
2013-09-10 03:07:00,69.8,63.7,30.15,North,0,0.0,0.0,81,0.00,,---,0.00,VWS V14.01,2013-09-10 07:07:00,
2013-09-10 03:08:00,69.8,63.7,30.15,North,0,0.0,0.0,81,0.00,,---,0.00,VWS V14.01,2013-09-10 07:08:00,
2013-09-10 03:10:00,69.6,63.5,30.15,North,0,0.0,0.0,81,0.00,,---,0.00,VWS V14.01,2013-09-10 07:10:00,
2013-09-10 03:12:00,69.6,63.2,30.15,North,0,0.0,0.0,80,0.00,,---,0.00,VWS V14.01,2013-09-10 07:12:00,
2013-09-10 03:13:00,69.4,63.0,30.15,North,0,0.0,0.0,80,0.00,,---,0.00,VWS V14.01,2013-09-10 07:13:00,
2013-09-10 03:15:00,69.4,63.0,30.15,North,0,0.0,0.0,80,0.00,,---,0.00,VWS V14.01,2013-09-10 07:15:00,
2013-09-10 03:17:00,69.3,62.8,30.15,North,0,0.0,0.0,80,0.00,,---,0.00,VWS V14.01,2013-09-10 07:17:00,
2013-09-10 03:18:00,69.3,62.8,30.15,North,0,0.0,0.0,80,0.00,,---,0.00,VWS V14.01,2013-09-10 07:18:00,
2013-09-10 03:20:00,69.3,63.2,30.15,North,0,0.0,0.0,81,0.00,,---,0.00,VWS V14.01,2013-09-10 07:20:00,
2013-09-10 03:22:00,69.3,63.2,30.15,North,0,2.7,2.7,81,0.00,,---,0.00,VWS V14.01,2013-09-10 07:22:00,
2013-09-10 03:23:00,69.3,63.2,30.15,North,0,0.0,2.7,81,0.00,,---,0.00,VWS V14.01,2013-09-10 07:23:00,
2013-09-10 03:24:00,69.3,63.2,30.15,North,0,0.0,0.0,81,0.00,,---,0.00,VWS V14.01,2013-09-10 07:24:00,
2013-09-10 03:25:00,69.3,63.2,30.15,North,0,0.0,0.0,81,0.00,,---,0.00,VWS V14.01,2013-09-10 07:25:00,
2013-09-10 03:27:00,69.3,63.2,30.15,North,0,0.0,0.0,81,0.00,,---,0.00,VWS V14.01,2013-09-10 07:27:00,
2013-09-10 03:28:00,69.3,63.2,30.15,North,0,0.0,0.0,81,0.00,,---,0.00,VWS V14.01,2013-09-10 07:28:00,
2013-09-10 03:29:00,69.1,63.0,30.15,North,0,0.0,0.0,81,0.00,,---,0.00,VWS V14.01,2013-09-10 07:29:00,
2013-09-10 03:31:00,69.1,63.0,30.15,North,0,0.0,0.0,81,0.00,,---,0.00,VWS V14.01,2013-09-10 07:31:00,
2013-09-10 03:32:00,69.1,63.0,30.15,North,0,0.0,0.0,81,0.00,,---,0.00,VWS V14.01,2013-09-10 07:32:00,
2013-09-10 03:33:00,69.1,63.4,30.15,North,0,0.0,0.0,82,0.00,,---,0.00,VWS V14.01,2013-09-10 07:33:00,
2013-09-10 03:34:00,69.1,63.4,30.15,North,0,0.0,0.0,82,0.00,,---,0.00,VWS V14.01,2013-09-10 07:34:00,
2013-09-10 03:36:00,69.1,63.4,30.15,North,0,0.0,0.0,82,0.00,,---,0.00,VWS V14.01,2013-09-10 07:36:00,
2013-09-10 03:37:00,69.1,63.4,30.15,North,0,0.0,0.0,82,0.00,,---,0.00,VWS V14.01,2013-09-10 07:37:00,
2013-09-10 03:38:00,69.1,63.4,30.15,NW,324,4.0,4.0,82,0.00,,---,0.00,VWS V14.01,2013-09-10 07:38:00,
2013-09-10 03:39:00,69.1,63.4,30.15,NW,324,2.7,4.0,82,0.00,,---,0.00,VWS V14.01,2013-09-10 07:39:00,
2013-09-10 03:41:00,69.1,63.4,30.15,NNW,343,0.0,2.7,82,0.00,,---,0.00,VWS V14.01,2013-09-10 07:41:00,
2013-09-10 03:42:00,69.1,63.4,30.15,NNW,343,0.0,0.0,82,0.00,,---,0.00,VWS V14.01,2013-09-10 07:42:00,
2013-09-10 03:43:00,69.1,63.4,30.15,NNW,343,0.0,0.0,82,0.00,,---,0.00,VWS V14.01,2013-09-10 07:43:00,
2013-09-10 03:44:00,69.1,63.4,30.15,NNW,343,0.0,0.0,82,0.00,,---,0.00,VWS V14.01,2013-09-10 07:44:00,
2013-09-10 03:46:00,69.1,63.4,30.15,NNW,343,0.0,0.0,82,0.00,,---,0.00,VWS V14.01,2013-09-10 07:46:00,
2013-09-10 03:47:00,69.1,63.4,30.15,NNW,343,0.0,0.0,82,0.00,,---,0.00,VWS V14.01,2013-09-10 07:47:00,
2013-09-10 03:49:00,68.9,62.8,30.15,NNW,343,0.0,0.0,81,0.00,,---,0.00,VWS V14.01,2013-09-10 07:49:00,
2013-09-10 03:51:00,68.9,62.8,30.15,NNW,343,0.0,0.0,81,0.00,,---,0.00,VWS V14.01,2013-09-10 07:51:00,
2013-09-10 03:52:00,68.9,62.8,30.15,NNW,343,0.0,0.0,81,0.00,,---,0.00,VWS V14.01,2013-09-10 07:52:00,
2013-09-10 03:54:00,68.9,62.8,30.15,NNW,343,0.0,0.0,81,0.00,,---,0.00,VWS V14.01,2013-09-10 07:54:00,
2013-09-10 03:57:00,68.9,63.2,30.15,NNW,343,0.0,0.0,82,0.00,,---,0.00,VWS V14.01,2013-09-10 07:57:00,
2013-09-10 03:59:00,68.9,63.2,30.15,NNW,343,0.0,0.0,82,0.00,,---,0.00,VWS V14.01,2013-09-10 07:59:00,
2013-09-10 04:02:00,68.9,63.2,30.15,NNW,343,0.0,0.0,82,0.00,,---,0.00,VWS V14.01,2013-09-10 08:02:00,
2013-09-10 04:04:00,68.9,63.2,30.15,NNW,343,0.0,0.0,82,0.00,,---,0.00,VWS V14.01,2013-09-10 08:04:00,
2013-09-10 04:05:00,68.9,63.2,30.15,NNW,343,0.0,0.0,82,0.00,,---,0.00,VWS V14.01,2013-09-10 08:05:00,
2013-09-10 04:07:00,68.9,63.2,30.15,NNW,343,0.0,0.0,82,0.00,,---,0.00,VWS V14.01,2013-09-10 08:07:00,
2013-09-10 04:09:00,68.9,63.2,30.15,NNW,343,0.0,0.0,82,0.00,,---,0.00,VWS V14.01,2013-09-10 08:09:00,
2013-09-10 04:10:00,68.9,63.2,30.15,NNW,343,0.0,0.0,82,0.00,,---,0.00,VWS V14.01,2013-09-10 08:10:00,
2013-09-10 04:12:00,68.7,63.0,30.15,NNW,343,0.0,0.0,82,0.00,,---,0.00,VWS V14.01,2013-09-10 08:12:00,
2013-09-10 04:13:00,68.7,63.0,30.15,NNW,343,0.0,0.0,82,0.00,,---,0.00,VWS V14.01,2013-09-10 08:13:00,
2013-09-10 04:14:00,68.7,63.0,30.15,NNW,343,0.0,0.0,82,0.00,,---,0.00,VWS V14.01,2013-09-10 08:14:00,
2013-09-10 04:15:00,68.7,63.0,30.15,NNW,343,0.0,0.0,82,0.00,,---,0.00,VWS V14.01,2013-09-10 08:15:00,
2013-09-10 04:17:00,68.7,63.0,30.15,NNW,343,0.0,0.0,82,0.00,,---,0.00,VWS V14.01,2013-09-10 08:17:00,
2013-09-10 04:18:00,68.7,63.0,30.15,NNW,343,0.0,0.0,82,0.00,,---,0.00,VWS V14.01,2013-09-10 08:18:00,
2013-09-10 04:19:00,68.7,63.0,30.15,NNW,343,0.0,0.0,82,0.00,,---,0.00,VWS V14.01,2013-09-10 08:19:00,
2013-09-10 04:20:00,68.7,63.0,30.15,NNW,343,0.0,0.0,82,0.00,,---,0.00,VWS V14.01,2013-09-10 08:20:00,
2013-09-10 04:22:00,68.7,63.0,30.15,NNW,343,0.0,0.0,82,0.00,,---,0.00,VWS V14.01,2013-09-10 08:22:00,
2013-09-10 04:24:00,68.7,63.0,30.15,NNW,343,0.0,0.0,82,0.00,,---,0.00,VWS V14.01,2013-09-10 08:24:00,
2013-09-10 04:25:00,68.7,63.0,30.15,NNW,343,0.0,0.0,82,0.00,,---,0.00,VWS V14.01,2013-09-10 08:25:00,
2013-09-10 04:27:00,68.7,63.0,30.15,NNW,343,0.0,0.0,82,0.00,,---,0.00,VWS V14.01,2013-09-10 08:27:00,
2013-09-10 04:29:00,68.5,62.8,30.15,NNW,343,0.0,0.0,82,0.00,,---,0.00,VWS V14.01,2013-09-10 08:29:00,
2013-09-10 04:30:00,68.5,62.8,30.15,NNW,343,0.0,0.0,82,0.00,,---,0.00,VWS V14.01,2013-09-10 08:30:00,
2013-09-10 04:32:00,68.5,62.8,30.15,NNW,343,0.0,0.0,82,0.00,,---,0.00,VWS V14.01,2013-09-10 08:32:00,
2013-09-10 04:33:00,68.5,62.8,30.15,NNW,343,0.0,0.0,82,0.00,,---,0.00,VWS V14.01,2013-09-10 08:33:00,
2013-09-10 04:34:00,68.5,62.8,30.15,NNW,343,0.0,0.0,82,0.00,,---,0.00,VWS V14.01,2013-09-10 08:34:00,
2013-09-10 04:35:00,68.5,62.8,30.15,NNW,343,0.0,0.0,82,0.00,,---,0.00,VWS V14.01,2013-09-10 08:35:00,
2013-09-10 04:37:00,68.5,62.8,30.15,NNW,343,0.0,0.0,82,0.00,,---,0.00,VWS V14.01,2013-09-10 08:37:00,
2013-09-10 04:38:00,68.5,62.8,30.15,NNW,343,0.0,0.0,82,0.00,,---,0.00,VWS V14.01,2013-09-10 08:38:00,
2013-09-10 04:39:00,68.5,62.8,30.15,NNW,343,0.0,0.0,82,0.00,,---,0.00,VWS V14.01,2013-09-10 08:39:00,
2013-09-10 04:40:00,68.5,63.2,30.15,NNW,343,0.0,0.0,83,0.00,,---,0.00,VWS V14.01,2013-09-10 08:40:00,
2013-09-10 04:42:00,68.7,63.3,30.15,NNW,343,0.0,0.0,83,0.00,,---,0.00,VWS V14.01,2013-09-10 08:42:00,
2013-09-10 04:43:00,68.7,63.3,30.15,NNW,343,0.0,0.0,83,0.00,,---,0.00,VWS V14.01,2013-09-10 08:43:00,
2013-09-10 04:44:00,68.7,63.3,30.15,NNW,343,0.0,0.0,83,0.00,,---,0.00,VWS V14.01,2013-09-10 08:44:00,
2013-09-10 04:45:00,68.7,63.3,30.15,NNW,343,0.0,0.0,83,0.00,,---,0.00,VWS V14.01,2013-09-10 08:45:00,
2013-09-10 04:46:00,68.7,63.3,30.15,NNW,343,0.0,0.0,83,0.00,,---,0.00,VWS V14.01,2013-09-10 08:46:00,
2013-09-10 04:47:00,68.7,63.3,30.15,NNW,343,0.0,0.0,83,0.00,,---,0.00,VWS V14.01,2013-09-10 08:47:00,
2013-09-10 04:48:00,68.7,63.3,30.15,NNW,343,0.0,0.0,83,0.00,,---,0.00,VWS V14.01,2013-09-10 08:48:00,
2013-09-10 04:49:00,68.7,63.3,30.15,NNW,343,0.0,0.0,83,0.00,,---,0.00,VWS V14.01,2013-09-10 08:49:00,
2013-09-10 04:50:00,68.9,63.5,30.15,NNW,343,0.0,0.0,83,0.00,,---,0.00,VWS V14.01,2013-09-10 08:50:00,
2013-09-10 04:51:00,68.9,63.5,30.15,NNW,343,0.0,0.0,83,0.00,,---,0.00,VWS V14.01,2013-09-10 08:51:00,
2013-09-10 04:52:00,68.9,63.5,30.18,NNW,343,0.0,0.0,83,0.00,,---,0.00,VWS V14.01,2013-09-10 08:52:00,
2013-09-10 04:53:00,68.9,63.5,30.18,NNW,343,0.0,0.0,83,0.00,,---,0.00,VWS V14.01,2013-09-10 08:53:00,
2013-09-10 04:54:00,68.9,63.5,30.18,NNW,343,0.0,0.0,83,0.00,,---,0.00,VWS V14.01,2013-09-10 08:54:00,
2013-09-10 04:56:00,69.1,64.1,30.18,NNW,343,0.0,0.0,84,0.00,,---,0.00,VWS V14.01,2013-09-10 08:56:00,
2013-09-10 04:57:00,69.1,64.1,30.18,NNW,343,0.0,0.0,84,0.00,,---,0.00,VWS V14.01,2013-09-10 08:57:00,
2013-09-10 04:58:00,69.1,63.7,30.18,NNW,343,0.0,0.0,83,0.00,,---,0.00,VWS V14.01,2013-09-10 08:58:00,
2013-09-10 04:59:00,68.9,63.5,30.18,NNW,343,0.0,0.0,83,0.00,,---,0.00,VWS V14.01,2013-09-10 08:59:00,
2013-09-10 05:01:00,68.9,63.2,30.18,NNW,343,0.0,0.0,82,0.00,,---,0.00,VWS V14.01,2013-09-10 09:01:00,
2013-09-10 05:02:00,68.9,63.2,30.18,NNW,343,0.0,0.0,82,0.00,,---,0.00,VWS V14.01,2013-09-10 09:02:00,
2013-09-10 05:03:00,68.9,63.2,30.18,NNW,343,0.0,0.0,82,0.00,,---,0.00,VWS V14.01,2013-09-10 09:03:00,
2013-09-10 05:04:00,68.7,62.7,30.18,NNW,343,0.0,0.0,81,0.00,,---,0.00,VWS V14.01,2013-09-10 09:04:00,
2013-09-10 05:06:00,68.5,62.5,30.18,NNW,343,0.0,0.0,81,0.00,,---,0.00,VWS V14.01,2013-09-10 09:06:00,
2013-09-10 05:07:00,68.5,62.5,30.18,NNW,343,0.0,0.0,81,0.00,,---,0.00,VWS V14.01,2013-09-10 09:07:00,
2013-09-10 05:08:00,68.4,62.3,30.18,NNW,343,0.0,0.0,81,0.00,,---,0.00,VWS V14.01,2013-09-10 09:08:00,
2013-09-10 05:09:00,68.4,62.3,30.18,NNW,343,0.0,0.0,81,0.00,,---,0.00,VWS V14.01,2013-09-10 09:09:00,
2013-09-10 05:12:00,68.4,62.7,30.18,NNW,343,0.0,0.0,82,0.00,,---,0.00,VWS V14.01,2013-09-10 09:12:00,
2013-09-10 05:13:00,68.4,62.7,30.18,NNW,343,0.0,0.0,82,0.00,,---,0.00,VWS V14.01,2013-09-10 09:13:00,
2013-09-10 05:14:00,68.4,62.7,30.18,NNW,343,0.0,0.0,82,0.00,,---,0.00,VWS V14.01,2013-09-10 09:14:00,
2013-09-10 05:17:00,68.4,63.3,30.18,NNW,343,0.0,0.0,84,0.00,,---,0.00,VWS V14.01,2013-09-10 09:17:00,
2013-09-10 05:18:00,68.5,63.5,30.18,NNW,343,0.0,0.0,84,0.00,,---,0.00,VWS V14.01,2013-09-10 09:18:00,
2013-09-10 05:19:00,68.5,63.5,30.18,NNW,343,0.0,0.0,84,0.00,,---,0.00,VWS V14.01,2013-09-10 09:19:00,
2013-09-10 05:20:00,68.5,63.5,30.18,NNW,343,0.0,0.0,84,0.00,,---,0.00,VWS V14.01,2013-09-10 09:20:00,
2013-09-10 05:22:00,68.5,63.9,30.18,NNW,343,0.0,0.0,85,0.00,,---,0.00,VWS V14.01,2013-09-10 09:22:00,
2013-09-10 05:23:00,68.7,64.0,30.18,NNW,343,0.0,0.0,85,0.00,,---,0.00,VWS V14.01,2013-09-10 09:23:00,
2013-09-10 05:24:00,68.7,64.0,30.18,NNW,343,0.0,0.0,85,0.00,,---,0.00,VWS V14.01,2013-09-10 09:24:00,
2013-09-10 05:25:00,68.7,64.0,30.18,NNW,343,0.0,0.0,85,0.00,,---,0.00,VWS V14.01,2013-09-10 09:25:00,
2013-09-10 05:27:00,68.7,64.0,30.18,NNW,343,0.0,0.0,85,0.00,,---,0.00,VWS V14.01,2013-09-10 09:27:00,
2013-09-10 05:28:00,68.7,64.0,30.18,NNW,343,0.0,0.0,85,0.00,,---,0.00,VWS V14.01,2013-09-10 09:28:00,
2013-09-10 05:29:00,68.7,63.7,30.18,NNW,343,0.0,0.0,84,0.00,,---,0.00,VWS V14.01,2013-09-10 09:29:00,
2013-09-10 05:30:00,68.7,63.7,30.18,NNW,343,0.0,0.0,84,0.00,,---,0.00,VWS V14.01,2013-09-10 09:30:00,
2013-09-10 05:32:00,68.7,63.7,30.18,NNW,343,0.0,0.0,84,0.00,,---,0.00,VWS V14.01,2013-09-10 09:32:00,
2013-09-10 05:33:00,68.7,63.7,30.18,NNW,343,2.2,2.7,84,0.00,,---,0.00,VWS V14.01,2013-09-10 09:33:00,
2013-09-10 05:34:00,68.9,63.9,30.18,NNW,343,2.7,2.7,84,0.00,,---,0.00,VWS V14.01,2013-09-10 09:34:00,
2013-09-10 05:35:00,68.9,63.9,30.18,NNW,343,2.7,2.7,84,0.00,,---,0.00,VWS V14.01,2013-09-10 09:35:00,
2013-09-10 05:37:00,68.9,63.9,30.18,NNW,343,3.6,3.6,84,0.00,,---,0.00,VWS V14.01,2013-09-10 09:37:00,
2013-09-10 05:38:00,68.9,63.9,30.18,NNW,343,0.0,3.6,84,0.00,,---,0.00,VWS V14.01,2013-09-10 09:38:00,
2013-09-10 05:39:00,68.9,63.9,30.18,NNW,343,0.0,0.0,84,0.00,,---,0.00,VWS V14.01,2013-09-10 09:39:00,
2013-09-10 05:40:00,68.9,63.9,30.18,NNW,343,0.0,0.0,84,0.00,,---,0.00,VWS V14.01,2013-09-10 09:40:00,
2013-09-10 05:42:00,69.1,64.4,30.18,NNW,343,0.0,0.0,85,0.00,,---,0.00,VWS V14.01,2013-09-10 09:42:00,
2013-09-10 05:43:00,69.1,64.4,30.18,NNW,343,0.0,0.0,85,0.00,,---,0.00,VWS V14.01,2013-09-10 09:43:00,
2013-09-10 05:44:00,69.1,64.4,30.18,NNW,343,0.0,0.0,85,0.00,,---,0.00,VWS V14.01,2013-09-10 09:44:00,
2013-09-10 05:45:00,69.1,64.4,30.18,NNW,343,0.0,0.0,85,0.00,,---,0.00,VWS V14.01,2013-09-10 09:45:00,
2013-09-10 05:47:00,69.1,64.4,30.18,NNW,343,3.6,3.6,85,0.00,,---,0.00,VWS V14.01,2013-09-10 09:47:00,
2013-09-10 05:48:00,69.1,64.4,30.18,NNW,343,0.0,3.6,85,0.00,,---,0.00,VWS V14.01,2013-09-10 09:48:00,
2013-09-10 05:49:00,69.1,64.4,30.18,NNW,343,0.0,0.0,85,0.00,,---,0.00,VWS V14.01,2013-09-10 09:49:00,
2013-09-10 05:50:00,69.1,64.4,30.18,NNW,343,0.0,0.0,85,0.00,,---,0.00,VWS V14.01,2013-09-10 09:50:00,
2013-09-10 05:52:00,69.1,64.4,30.18,NNW,343,0.0,0.0,85,0.00,,---,0.00,VWS V14.01,2013-09-10 09:52:00,
2013-09-10 05:53:00,69.1,64.4,30.18,NNW,343,0.0,0.0,85,0.00,,---,0.00,VWS V14.01,2013-09-10 09:53:00,
2013-09-10 05:54:00,69.1,64.1,30.18,NNW,343,0.0,0.0,84,0.00,,---,0.00,VWS V14.01,2013-09-10 09:54:00,
2013-09-10 05:55:00,69.1,64.1,30.18,NNW,343,0.0,0.0,84,0.00,,---,0.00,VWS V14.01,2013-09-10 09:55:00,
2013-09-10 05:57:00,69.1,64.1,30.18,NNW,343,0.0,0.0,84,0.00,,---,0.00,VWS V14.01,2013-09-10 09:57:00,
2013-09-10 05:58:00,69.1,64.1,30.18,NNW,343,0.0,0.0,84,0.00,,---,0.00,VWS V14.01,2013-09-10 09:58:00,
2013-09-10 05:59:00,68.9,63.5,30.18,NNW,343,0.0,0.0,83,0.00,,---,0.00,VWS V14.01,2013-09-10 09:59:00,
2013-09-10 06:00:00,68.9,63.5,30.18,NNW,343,0.0,0.0,83,0.00,,---,0.00,VWS V14.01,2013-09-10 10:00:00,
2013-09-10 06:02:00,68.7,63.0,30.18,NNW,343,0.0,0.0,82,0.00,,---,0.00,VWS V14.01,2013-09-10 10:02:00,
2013-09-10 06:03:00,68.5,62.5,30.18,NNW,343,0.0,0.0,81,0.00,,---,0.00,VWS V14.01,2013-09-10 10:03:00,
2013-09-10 06:05:00,68.4,62.3,30.18,NNW,343,0.0,0.0,81,0.00,,---,0.00,VWS V14.01,2013-09-10 10:05:00,
2013-09-10 06:07:00,68.2,62.1,30.18,NNW,343,0.0,0.0,81,0.00,,---,0.00,VWS V14.01,2013-09-10 10:07:00,
2013-09-10 06:08:00,68.2,62.1,30.18,NNW,343,0.0,0.0,81,0.00,,---,0.00,VWS V14.01,2013-09-10 10:08:00,
2013-09-10 06:10:00,68.0,62.0,30.18,NNW,343,0.0,0.0,81,0.00,,---,0.00,VWS V14.01,2013-09-10 10:10:00,
2013-09-10 06:11:00,68.0,62.3,30.18,NNW,343,0.0,0.0,82,0.00,,---,0.00,VWS V14.01,2013-09-10 10:11:00,
2013-09-10 06:12:00,68.0,62.3,30.18,NNW,343,0.0,0.0,82,0.00,,---,0.00,VWS V14.01,2013-09-10 10:12:00,
2013-09-10 06:13:00,68.0,62.3,30.18,NNW,343,0.0,0.0,82,0.00,,---,0.00,VWS V14.01,2013-09-10 10:13:00,
2013-09-10 06:14:00,68.0,62.3,30.18,NNW,343,0.0,0.0,82,0.00,,---,0.00,VWS V14.01,2013-09-10 10:14:00,
2013-09-10 06:15:00,68.0,63.0,30.18,NNW,343,0.0,0.0,84,0.00,,---,0.00,VWS V14.01,2013-09-10 10:15:00,
2013-09-10 06:16:00,68.2,63.5,30.18,NNW,343,0.0,0.0,85,0.00,,---,0.00,VWS V14.01,2013-09-10 10:16:00,
2013-09-10 06:17:00,68.2,63.8,30.18,NNW,343,0.0,0.0,86,0.00,,---,0.00,VWS V14.01,2013-09-10 10:17:00,
2013-09-10 06:18:00,68.2,63.8,30.18,NNW,343,0.0,0.0,86,0.00,,---,0.00,VWS V14.01,2013-09-10 10:18:00,
2013-09-10 06:19:00,68.2,63.8,30.18,NNW,343,0.0,0.0,86,0.00,,---,0.00,VWS V14.01,2013-09-10 10:19:00,
2013-09-10 06:20:00,68.2,63.5,30.18,NNW,343,0.0,0.0,85,0.00,,---,0.00,VWS V14.01,2013-09-10 10:20:00,
2013-09-10 06:21:00,68.2,63.5,30.18,NNW,343,0.0,0.0,85,0.00,,---,0.00,VWS V14.01,2013-09-10 10:21:00,
2013-09-10 06:22:00,68.2,63.5,30.18,NNW,343,0.0,0.0,85,0.00,,---,0.00,VWS V14.01,2013-09-10 10:22:00,
2013-09-10 06:23:00,68.2,63.5,30.18,NNW,343,0.0,0.0,85,0.00,,---,0.00,VWS V14.01,2013-09-10 10:23:00,
2013-09-10 06:24:00,68.2,63.5,30.18,NNW,343,0.0,0.0,85,0.00,,---,0.00,VWS V14.01,2013-09-10 10:24:00,
2013-09-10 06:25:00,68.2,63.5,30.18,NNW,343,0.0,0.0,85,0.00,,---,0.00,VWS V14.01,2013-09-10 10:25:00,
2013-09-10 06:26:00,68.2,63.5,30.18,NNW,343,0.0,0.0,85,0.00,,---,0.00,VWS V14.01,2013-09-10 10:26:00,
2013-09-10 06:27:00,68.2,63.5,30.18,NNW,343,0.0,0.0,85,0.00,,---,0.00,VWS V14.01,2013-09-10 10:27:00,
2013-09-10 06:28:00,68.2,63.5,30.18,NNW,343,0.0,0.0,85,0.00,,---,0.00,VWS V14.01,2013-09-10 10:28:00,
2013-09-10 06:29:00,68.2,63.5,30.18,NNW,343,0.0,0.0,85,0.00,,---,0.00,VWS V14.01,2013-09-10 10:29:00,
2013-09-10 06:30:00,68.2,63.5,30.18,NNW,343,0.0,0.0,85,0.00,,---,0.00,VWS V14.01,2013-09-10 10:30:00,
2013-09-10 06:31:00,68.2,63.5,30.18,NNW,343,0.0,0.0,85,0.00,,---,0.00,VWS V14.01,2013-09-10 10:31:00,
2013-09-10 06:32:00,68.4,63.7,30.18,NNW,343,0.0,0.0,85,0.00,,---,0.00,VWS V14.01,2013-09-10 10:32:00,
2013-09-10 06:33:00,68.4,64.0,30.18,NNW,343,0.0,0.0,86,0.00,,---,0.00,VWS V14.01,2013-09-10 10:33:00,
2013-09-10 06:34:00,68.4,64.0,30.18,NNW,343,0.0,0.0,86,0.00,,---,0.00,VWS V14.01,2013-09-10 10:34:00,
2013-09-10 06:35:00,68.4,64.0,30.18,NNW,343,0.0,0.0,86,0.00,,---,0.00,VWS V14.01,2013-09-10 10:35:00,
2013-09-10 06:36:00,68.5,64.2,30.18,NNW,343,0.0,0.0,86,0.00,,---,0.00,VWS V14.01,2013-09-10 10:36:00,
2013-09-10 06:37:00,68.5,64.2,30.18,NNW,343,0.0,0.0,86,0.00,,---,0.00,VWS V14.01,2013-09-10 10:37:00,
2013-09-10 06:38:00,68.5,64.2,30.18,NNW,343,0.0,0.0,86,0.00,,---,0.00,VWS V14.01,2013-09-10 10:38:00,
2013-09-10 06:39:00,68.5,64.2,30.18,NNW,343,0.0,0.0,86,0.00,,---,0.00,VWS V14.01,2013-09-10 10:39:00,
2013-09-10 06:41:00,68.5,64.2,30.18,NNW,343,0.0,0.0,86,0.00,,---,0.00,VWS V14.01,2013-09-10 10:41:00,
2013-09-10 06:42:00,68.5,64.2,30.18,NNW,343,0.0,0.0,86,0.00,,---,0.00,VWS V14.01,2013-09-10 10:42:00,
2013-09-10 06:43:00,68.5,64.2,30.18,NNW,343,0.0,0.0,86,0.00,,---,0.00,VWS V14.01,2013-09-10 10:43:00,
2013-09-10 06:44:00,68.5,64.2,30.18,NNW,343,0.0,0.0,86,0.00,,---,0.00,VWS V14.01,2013-09-10 10:44:00,
2013-09-10 06:45:00,68.5,64.2,30.18,NNW,343,0.0,0.0,86,0.00,,---,0.00,VWS V14.01,2013-09-10 10:45:00,
2013-09-10 06:46:00,68.5,64.2,30.18,NNW,343,0.0,0.0,86,0.00,,---,0.00,VWS V14.01,2013-09-10 10:46:00,
2013-09-10 06:47:00,68.5,64.2,30.18,NNW,343,0.0,0.0,86,0.00,,---,0.00,VWS V14.01,2013-09-10 10:47:00,
2013-09-10 06:48:00,68.5,63.9,30.18,NNW,343,0.0,0.0,85,0.00,,---,0.00,VWS V14.01,2013-09-10 10:48:00,
2013-09-10 06:49:00,68.4,63.7,30.18,NNW,343,0.0,0.0,85,0.00,,---,0.00,VWS V14.01,2013-09-10 10:49:00,
2013-09-10 06:51:00,68.4,63.7,30.18,NNW,343,0.0,0.0,85,0.00,,---,0.00,VWS V14.01,2013-09-10 10:51:00,
2013-09-10 06:53:00,68.4,63.7,30.18,NNW,343,0.0,0.0,85,0.00,,---,0.00,VWS V14.01,2013-09-10 10:53:00,
2013-09-10 06:54:00,68.2,63.5,30.18,NNW,343,0.0,0.0,85,0.00,,---,0.00,VWS V14.01,2013-09-10 10:54:00,
2013-09-10 06:56:00,68.2,63.2,30.18,NNW,343,0.0,0.0,84,0.00,,---,0.00,VWS V14.01,2013-09-10 10:56:00,
2013-09-10 06:57:00,68.2,63.2,30.18,NNW,343,0.0,0.0,84,0.00,,---,0.00,VWS V14.01,2013-09-10 10:57:00,
2013-09-10 06:58:00,68.0,63.0,30.18,NNW,343,0.0,0.0,84,0.00,,---,0.00,VWS V14.01,2013-09-10 10:58:00,
2013-09-10 06:59:00,68.0,63.0,30.18,NNW,343,0.0,0.0,84,0.00,,---,0.00,VWS V14.01,2013-09-10 10:59:00,
2013-09-10 07:01:00,68.0,63.3,30.18,NNW,343,0.0,0.0,85,0.00,,---,0.00,VWS V14.01,2013-09-10 11:01:00,
2013-09-10 07:03:00,68.0,63.7,30.18,NNW,343,0.0,0.0,86,0.00,,---,0.00,VWS V14.01,2013-09-10 11:03:00,
2013-09-10 07:04:00,68.2,63.8,30.18,NNW,343,0.0,0.0,86,0.00,,---,0.00,VWS V14.01,2013-09-10 11:04:00,
2013-09-10 07:06:00,68.2,63.8,30.18,NNW,343,0.0,0.0,86,0.00,,---,0.00,VWS V14.01,2013-09-10 11:06:00,
2013-09-10 07:08:00,68.2,64.2,30.18,NNW,343,0.0,2.7,87,0.00,,---,0.00,VWS V14.01,2013-09-10 11:08:00,
2013-09-10 07:10:00,68.4,64.3,30.18,NNW,343,0.0,0.0,87,0.00,,---,0.00,VWS V14.01,2013-09-10 11:10:00,
2013-09-10 07:11:00,68.5,64.8,30.18,NNW,343,0.0,0.0,88,0.00,,---,0.00,VWS V14.01,2013-09-10 11:11:00,
2013-09-10 07:12:00,68.5,64.8,30.18,NNW,343,0.0,0.0,88,0.00,,---,0.00,VWS V14.01,2013-09-10 11:12:00,
2013-09-10 07:13:00,68.5,64.8,30.18,NNW,343,0.0,0.0,88,0.00,,---,0.00,VWS V14.01,2013-09-10 11:13:00,
2013-09-10 07:16:00,68.5,64.8,30.18,NNW,343,0.0,0.0,88,0.00,,---,0.00,VWS V14.01,2013-09-10 11:16:00,
2013-09-10 07:17:00,68.5,64.8,30.18,NNW,343,0.0,0.0,88,0.00,,---,0.00,VWS V14.01,2013-09-10 11:17:00,
2013-09-10 07:18:00,68.7,65.0,30.18,NNW,343,0.0,0.0,88,0.00,,---,0.00,VWS V14.01,2013-09-10 11:18:00,
2013-09-10 07:21:00,68.9,65.2,30.18,NNW,343,0.0,0.0,88,0.00,,---,0.00,VWS V14.01,2013-09-10 11:21:00,
2013-09-10 07:22:00,68.9,64.9,30.18,NNW,343,0.0,0.0,87,0.00,,---,0.00,VWS V14.01,2013-09-10 11:22:00,
2013-09-10 07:23:00,68.9,64.9,30.18,NNW,343,0.0,0.0,87,0.00,,---,0.00,VWS V14.01,2013-09-10 11:23:00,
2013-09-10 07:24:00,68.9,64.9,30.18,NNW,343,0.0,0.0,87,0.00,,---,0.00,VWS V14.01,2013-09-10 11:24:00,
2013-09-10 07:26:00,68.9,64.9,30.18,NNW,343,0.0,0.0,87,0.00,,---,0.00,VWS V14.01,2013-09-10 11:26:00,
2013-09-10 07:27:00,68.9,64.9,30.18,NNW,343,0.0,0.0,87,0.00,,---,0.00,VWS V14.01,2013-09-10 11:27:00,
2013-09-10 07:28:00,68.9,64.9,30.18,NNW,343,0.0,0.0,87,0.00,,---,0.00,VWS V14.01,2013-09-10 11:28:00,
2013-09-10 07:29:00,68.9,64.9,30.18,NNW,343,0.0,0.0,87,0.00,,---,0.00,VWS V14.01,2013-09-10 11:29:00,
2013-09-10 07:31:00,69.1,65.1,30.18,NNW,343,0.0,0.0,87,0.00,,---,0.00,VWS V14.01,2013-09-10 11:31:00,
2013-09-10 07:32:00,69.1,65.1,30.18,NNW,343,0.0,0.0,87,0.00,,---,0.00,VWS V14.01,2013-09-10 11:32:00,
2013-09-10 07:33:00,69.1,65.4,30.18,NNW,343,0.0,0.0,88,0.00,,---,0.00,VWS V14.01,2013-09-10 11:33:00,
2013-09-10 07:34:00,69.1,65.4,30.18,NNW,343,0.0,0.0,88,0.00,,---,0.00,VWS V14.01,2013-09-10 11:34:00,
2013-09-10 07:36:00,69.1,65.4,30.18,NNW,343,0.0,0.0,88,0.00,,---,0.00,VWS V14.01,2013-09-10 11:36:00,
2013-09-10 07:37:00,69.1,65.4,30.18,NNW,343,0.0,0.0,88,0.00,,---,0.00,VWS V14.01,2013-09-10 11:37:00,
2013-09-10 07:38:00,69.1,65.4,30.18,NNW,343,0.0,0.0,88,0.00,,---,0.00,VWS V14.01,2013-09-10 11:38:00,
2013-09-10 07:39:00,69.4,65.7,30.21,NNW,343,0.0,0.0,88,0.00,,---,0.00,VWS V14.01,2013-09-10 11:39:00,
2013-09-10 07:41:00,69.4,65.7,30.21,NNW,343,0.0,0.0,88,0.00,,---,0.00,VWS V14.01,2013-09-10 11:41:00,
2013-09-10 07:43:00,69.6,65.9,30.21,NNW,343,0.0,0.0,88,0.00,,---,0.00,VWS V14.01,2013-09-10 11:43:00,
2013-09-10 07:44:00,69.6,65.9,30.21,NNW,343,0.0,0.0,88,0.00,,---,0.00,VWS V14.01,2013-09-10 11:44:00,
2013-09-10 07:47:00,69.8,66.1,30.21,NNW,343,0.0,0.0,88,0.00,,---,0.00,VWS V14.01,2013-09-10 11:47:00,
2013-09-10 07:48:00,69.8,66.1,30.21,NNW,343,0.0,0.0,88,0.00,,---,0.00,VWS V14.01,2013-09-10 11:48:00,
2013-09-10 07:49:00,69.8,66.1,30.21,NNW,343,0.0,0.0,88,0.00,,---,0.00,VWS V14.01,2013-09-10 11:49:00,
2013-09-10 07:52:00,70.2,66.8,30.21,NNW,343,0.0,0.0,89,0.00,,---,0.00,VWS V14.01,2013-09-10 11:52:00,
2013-09-10 07:53:00,70.2,66.8,30.21,NNW,343,0.0,0.0,89,0.00,,---,0.00,VWS V14.01,2013-09-10 11:53:00,
2013-09-10 07:54:00,70.2,66.8,30.21,NNW,343,0.0,0.0,89,0.00,,---,0.00,VWS V14.01,2013-09-10 11:54:00,
2013-09-10 07:57:00,70.5,67.1,30.21,NNW,343,0.0,0.0,89,0.00,,---,0.00,VWS V14.01,2013-09-10 11:57:00,
2013-09-10 07:58:00,70.5,67.1,30.21,NNW,343,0.0,0.0,89,0.00,,---,0.00,VWS V14.01,2013-09-10 11:58:00,
2013-09-10 07:59:00,70.5,67.1,30.21,NNW,343,0.0,0.0,89,0.00,,---,0.00,VWS V14.01,2013-09-10 11:59:00,
2013-09-10 08:02:00,70.5,67.1,30.21,NNW,343,0.0,0.0,89,0.00,,---,0.00,VWS V14.01,2013-09-10 12:02:00,
2013-09-10 08:03:00,70.5,67.1,30.21,NNW,343,0.0,0.0,89,0.00,,---,0.00,VWS V14.01,2013-09-10 12:03:00,
2013-09-10 08:04:00,70.9,67.5,30.21,NNW,343,0.0,0.0,89,0.00,,---,0.00,VWS V14.01,2013-09-10 12:04:00,
2013-09-10 08:05:00,70.9,67.5,30.21,NNW,343,0.0,0.0,89,0.00,,---,0.00,VWS V14.01,2013-09-10 12:05:00,
2013-09-10 08:07:00,70.9,67.5,30.21,NNW,343,0.0,0.0,89,0.00,,---,0.00,VWS V14.01,2013-09-10 12:07:00,
2013-09-10 08:08:00,71.1,67.7,30.21,NNW,343,0.0,0.0,89,0.00,,---,0.00,VWS V14.01,2013-09-10 12:08:00,
2013-09-10 08:09:00,71.2,68.2,30.21,NNW,343,0.0,0.0,90,0.00,,---,0.00,VWS V14.01,2013-09-10 12:09:00,
2013-09-10 08:10:00,71.4,68.3,30.21,NNW,343,0.0,0.0,90,0.00,,---,0.00,VWS V14.01,2013-09-10 12:10:00,
2013-09-10 08:12:00,71.4,68.3,30.21,NNW,343,0.0,0.0,90,0.00,,---,0.00,VWS V14.01,2013-09-10 12:12:00,
2013-09-10 08:13:00,71.4,68.3,30.21,North,350,3.6,3.6,90,0.00,,---,0.00,VWS V14.01,2013-09-10 12:13:00,
2013-09-10 08:14:00,71.4,68.3,30.21,North,350,3.6,3.6,90,0.00,,---,0.00,VWS V14.01,2013-09-10 12:14:00,
2013-09-10 08:15:00,71.4,68.3,30.21,NNW,328,2.7,3.6,90,0.00,,---,0.00,VWS V14.01,2013-09-10 12:15:00,
2013-09-10 08:17:00,72.0,68.9,30.21,NNW,328,2.7,2.7,90,0.00,,---,0.00,VWS V14.01,2013-09-10 12:17:00,
2013-09-10 08:18:00,72.0,68.9,30.21,NNW,328,2.7,2.7,90,0.00,,---,0.00,VWS V14.01,2013-09-10 12:18:00,
2013-09-10 08:19:00,72.0,68.9,30.21,NNW,328,2.7,2.7,90,0.00,,---,0.00,VWS V14.01,2013-09-10 12:19:00,
2013-09-10 08:20:00,72.1,69.4,30.21,NNW,328,0.0,0.0,91,0.00,,---,0.00,VWS V14.01,2013-09-10 12:20:00,
2013-09-10 08:22:00,72.3,69.6,30.21,NNW,328,0.0,0.0,91,0.00,,---,0.00,VWS V14.01,2013-09-10 12:22:00,
2013-09-10 08:23:00,72.3,69.6,30.21,NNW,328,0.0,0.0,91,0.00,,---,0.00,VWS V14.01,2013-09-10 12:23:00,
2013-09-10 08:24:00,72.3,69.6,30.21,NNW,328,0.0,0.0,91,0.00,,---,0.00,VWS V14.01,2013-09-10 12:24:00,
2013-09-10 08:25:00,72.7,69.9,30.21,NNW,328,0.0,0.0,91,0.00,,---,0.00,VWS V14.01,2013-09-10 12:25:00,
2013-09-10 08:27:00,73.0,70.3,30.21,NNW,328,0.0,0.0,91,0.00,,---,0.00,VWS V14.01,2013-09-10 12:27:00,
2013-09-10 08:28:00,73.0,70.3,30.21,NNW,328,0.0,0.0,91,0.00,,---,0.00,VWS V14.01,2013-09-10 12:28:00,
2013-09-10 08:29:00,73.2,70.8,30.21,NNW,328,0.0,0.0,92,0.00,,---,0.00,VWS V14.01,2013-09-10 12:29:00,
2013-09-10 08:31:00,73.2,70.8,30.21,NNW,330,2.7,2.7,92,0.00,,---,0.00,VWS V14.01,2013-09-10 12:31:00,
2013-09-10 08:32:00,73.2,70.8,30.21,NW,316,2.2,2.2,92,0.00,,---,0.00,VWS V14.01,2013-09-10 12:32:00,
2013-09-10 08:33:00,73.2,70.8,30.21,NNW,341,3.1,3.1,92,0.00,,---,0.00,VWS V14.01,2013-09-10 12:33:00,
2013-09-10 08:34:00,73.6,70.8,30.21,NNW,341,3.1,3.1,91,0.00,,---,0.00,VWS V14.01,2013-09-10 12:34:00,
2013-09-10 08:36:00,73.6,70.8,30.21,North,4,2.7,6.3,91,0.00,,---,0.00,VWS V14.01,2013-09-10 12:36:00,
2013-09-10 08:37:00,73.6,70.8,30.21,North,350,3.6,3.6,91,0.00,,---,0.00,VWS V14.01,2013-09-10 12:37:00,
2013-09-10 08:38:00,73.9,71.2,30.21,North,350,3.6,3.6,91,0.00,,---,0.00,VWS V14.01,2013-09-10 12:38:00,
2013-09-10 08:39:00,73.9,71.2,30.21,NNE,15,4.9,4.9,91,0.00,,---,0.00,VWS V14.01,2013-09-10 12:39:00,
2013-09-10 08:41:00,74.1,71.3,30.21,North,357,2.7,3.1,91,0.00,,---,0.00,VWS V14.01,2013-09-10 12:41:00,
2013-09-10 08:42:00,74.1,71.3,30.21,NW,326,0.0,0.0,91,0.00,,---,0.00,VWS V14.01,2013-09-10 12:42:00,
2013-09-10 08:43:00,74.3,71.5,30.21,NW,326,0.0,0.0,91,0.00,,---,0.00,VWS V14.01,2013-09-10 12:43:00,
2013-09-10 08:44:00,74.3,71.5,30.21,NW,326,0.0,0.0,91,0.00,,---,0.00,VWS V14.01,2013-09-10 12:44:00,
2013-09-10 08:45:00,74.3,71.2,30.21,NNE,21,2.7,2.7,90,0.00,,---,0.00,VWS V14.01,2013-09-10 12:45:00,
2013-09-10 08:46:00,74.3,71.2,30.21,North,10,0.0,0.0,90,0.00,,---,0.00,VWS V14.01,2013-09-10 12:46:00,
2013-09-10 08:48:00,74.5,71.4,30.21,North,2,0.0,0.0,90,0.00,,---,0.00,VWS V14.01,2013-09-10 12:48:00,
2013-09-10 08:49:00,74.7,71.2,30.21,North,2,0.0,0.0,89,0.00,,---,0.00,VWS V14.01,2013-09-10 12:49:00,
2013-09-10 08:50:00,74.8,71.4,30.21,North,2,0.0,0.0,89,0.00,,---,0.00,VWS V14.01,2013-09-10 12:50:00,
2013-09-10 08:52:00,74.8,71.4,30.21,North,2,0.0,0.0,89,0.00,,---,0.00,VWS V14.01,2013-09-10 12:52:00,
2013-09-10 08:53:00,75.0,71.6,30.21,North,2,0.0,0.0,89,0.00,,---,0.00,VWS V14.01,2013-09-10 12:53:00,
2013-09-10 08:54:00,75.4,71.6,30.21,North,2,0.0,0.0,88,0.00,,---,0.00,VWS V14.01,2013-09-10 12:54:00,
2013-09-10 08:55:00,75.6,71.8,30.21,North,2,0.0,0.0,88,0.00,,---,0.00,VWS V14.01,2013-09-10 12:55:00,
2013-09-10 08:57:00,75.6,71.8,30.21,North,2,0.0,0.0,88,0.00,,---,0.00,VWS V14.01,2013-09-10 12:57:00,
2013-09-10 08:58:00,75.6,71.8,30.21,North,2,0.0,0.0,88,0.00,,---,0.00,VWS V14.01,2013-09-10 12:58:00,
2013-09-10 08:59:00,76.1,71.9,30.21,North,2,0.0,0.0,87,0.00,,---,0.00,VWS V14.01,2013-09-10 12:59:00,
2013-09-10 09:01:00,76.1,71.9,30.21,North,2,0.0,0.0,87,0.00,,---,0.00,VWS V14.01,2013-09-10 13:01:00,
2013-09-10 09:02:00,76.1,69.1,30.21,North,2,0.0,0.0,79,0.00,,---,0.00,VWS V14.01,2013-09-10 13:02:00,
2013-09-10 09:03:00,76.1,69.1,30.21,North,2,0.0,0.0,79,0.00,,---,0.00,VWS V14.01,2013-09-10 13:03:00,
2013-09-10 09:04:00,76.3,69.3,30.21,NNE,23,2.7,2.7,79,0.00,,---,0.00,VWS V14.01,2013-09-10 13:04:00,
2013-09-10 09:06:00,76.8,69.4,30.21,NNE,23,2.7,2.7,78,0.00,,---,0.00,VWS V14.01,2013-09-10 13:06:00,
2013-09-10 09:08:00,76.8,69.4,30.21,NNE,23,2.7,2.7,78,0.00,,---,0.00,VWS V14.01,2013-09-10 13:08:00,
2013-09-10 09:09:00,76.8,69.4,30.21,NNE,23,2.7,2.7,78,0.00,,---,0.00,VWS V14.01,2013-09-10 13:09:00,
2013-09-10 09:11:00,76.8,69.4,30.21,NNE,23,2.7,2.7,78,0.00,,---,0.00,VWS V14.01,2013-09-10 13:11:00,
2013-09-10 09:13:00,77.5,62.6,30.21,NNE,23,2.7,2.7,60,0.00,,---,0.00,VWS V14.01,2013-09-10 13:13:00,
2013-09-10 09:14:00,77.5,62.6,30.21,NNE,23,2.7,2.7,60,0.00,,---,0.00,VWS V14.01,2013-09-10 13:14:00,
2013-09-10 09:16:00,77.5,62.6,30.21,NNE,23,2.7,2.7,60,0.00,,---,0.00,VWS V14.01,2013-09-10 13:16:00,
2013-09-10 09:18:00,77.5,62.6,30.21,NNE,23,2.7,2.7,60,0.00,,---,0.00,VWS V14.01,2013-09-10 13:18:00,
2013-09-10 09:19:00,77.5,62.6,30.21,ENE,69,3.1,3.1,60,0.00,,---,0.00,VWS V14.01,2013-09-10 13:19:00,
2013-09-10 09:21:00,78.3,56.4,30.21,East,85,0.0,0.0,47,0.00,,---,0.00,VWS V14.01,2013-09-10 13:21:00,
2013-09-10 09:23:00,78.3,56.4,30.21,NE,49,3.1,3.1,47,0.00,,---,0.00,VWS V14.01,2013-09-10 13:23:00,
2013-09-10 09:24:00,78.8,56.9,30.21,North,7,4.9,4.9,47,0.00,,---,0.00,VWS V14.01,2013-09-10 13:24:00,
2013-09-10 09:27:00,79.0,57.0,30.21,North,7,4.9,4.9,47,0.00,,---,0.00,VWS V14.01,2013-09-10 13:27:00,
2013-09-10 09:28:00,79.0,57.0,30.21,North,7,4.9,4.9,47,0.00,,---,0.00,VWS V14.01,2013-09-10 13:28:00,
2013-09-10 09:30:00,79.0,57.0,30.21,ENE,64,3.6,3.6,47,0.00,,---,0.00,VWS V14.01,2013-09-10 13:30:00,
2013-09-10 09:32:00,79.2,55.4,30.21,ENE,59,3.6,3.6,44,0.00,,---,0.00,VWS V14.01,2013-09-10 13:32:00,
2013-09-10 09:33:00,79.2,55.4,30.21,ENE,59,3.6,3.6,44,0.00,,---,0.00,VWS V14.01,2013-09-10 13:33:00,
2013-09-10 09:34:00,79.2,55.4,30.21,ENE,67,0.0,3.6,44,0.00,,---,0.00,VWS V14.01,2013-09-10 13:34:00,
2013-09-10 09:35:00,79.3,54.9,30.21,ENE,67,0.0,0.0,43,0.00,,---,0.00,VWS V14.01,2013-09-10 13:35:00,
2013-09-10 09:37:00,79.3,54.9,30.21,NE,45,4.0,4.0,43,0.00,,---,0.00,VWS V14.01,2013-09-10 13:37:00,
2013-09-10 09:38:00,79.3,54.9,30.21,NE,45,4.0,4.0,43,0.00,,---,0.00,VWS V14.01,2013-09-10 13:38:00,
2013-09-10 09:39:00,79.5,55.1,30.21,North,357,4.9,4.9,43,0.00,,---,0.00,VWS V14.01,2013-09-10 13:39:00,
2013-09-10 09:40:00,79.5,55.1,30.21,North,357,4.9,4.9,43,0.00,,---,0.00,VWS V14.01,2013-09-10 13:40:00,
2013-09-10 09:42:00,79.7,55.2,30.21,NE,44,5.8,5.8,43,0.00,,---,0.00,VWS V14.01,2013-09-10 13:42:00,
2013-09-10 09:43:00,79.7,55.2,30.21,NE,44,5.8,5.8,43,0.00,,---,0.00,VWS V14.01,2013-09-10 13:43:00,
2013-09-10 09:44:00,79.7,55.2,30.21,NE,36,3.6,3.6,43,0.00,,---,0.00,VWS V14.01,2013-09-10 13:44:00,
2013-09-10 09:45:00,79.9,54.8,30.21,NE,36,3.6,3.6,42,0.00,,---,0.00,VWS V14.01,2013-09-10 13:45:00,
2013-09-10 09:48:00,80.1,54.9,30.24,NW,316,2.7,2.7,42,0.00,,---,0.00,VWS V14.01,2013-09-10 13:48:00,
2013-09-10 09:50:00,80.1,54.9,30.24,NE,44,4.9,4.9,42,0.00,,---,0.00,VWS V14.01,2013-09-10 13:50:00,
2013-09-10 09:53:00,80.4,55.2,30.24,NE,44,4.9,4.9,42,0.00,,---,0.00,VWS V14.01,2013-09-10 13:53:00,
2013-09-10 09:55:00,81.0,55.1,30.24,NE,44,4.9,4.9,41,0.00,,---,0.00,VWS V14.01,2013-09-10 13:55:00,
2013-09-10 09:58:00,81.3,54.7,30.24,WNW,293,5.8,5.8,40,0.00,,---,0.00,VWS V14.01,2013-09-10 13:58:00,
2013-09-10 10:00:00,81.5,54.2,30.24,NNW,345,2.7,3.6,39,0.00,,---,0.00,VWS V14.01,2013-09-10 14:00:00,
2013-09-10 10:03:00,81.5,53.5,30.24,North,350,4.0,4.0,38,0.00,,---,0.00,VWS V14.01,2013-09-10 14:03:00,
2013-09-10 10:05:00,81.7,52.9,30.24,North,353,4.9,4.9,37,0.00,,---,0.00,VWS V14.01,2013-09-10 14:05:00,
2013-09-10 10:08:00,81.9,53.8,30.24,North,353,0.0,0.0,38,0.00,,---,0.00,VWS V14.01,2013-09-10 14:08:00,
2013-09-10 10:10:00,81.9,53.8,30.24,North,353,0.0,0.0,38,0.00,,---,0.00,VWS V14.01,2013-09-10 14:10:00,
2013-09-10 10:11:00,81.9,53.8,30.24,North,353,0.0,0.0,38,0.00,,---,0.00,VWS V14.01,2013-09-10 14:11:00,
2013-09-10 10:13:00,82.4,52.0,30.24,NW,320,2.7,2.7,35,0.00,,---,0.00,VWS V14.01,2013-09-10 14:13:00,
2013-09-10 10:15:00,82.2,51.1,30.24,North,357,3.6,8.1,34,0.00,,---,0.00,VWS V14.01,2013-09-10 14:15:00,
2013-09-10 10:16:00,82.4,51.2,30.24,NE,36,3.1,6.3,34,0.00,,---,0.00,VWS V14.01,2013-09-10 14:16:00,
2013-09-10 10:18:00,82.6,51.4,30.24,NNW,342,5.4,5.4,34,0.00,,---,0.00,VWS V14.01,2013-09-10 14:18:00,
2013-09-10 10:20:00,82.8,51.6,30.24,NNW,343,2.2,5.4,34,0.00,,---,0.00,VWS V14.01,2013-09-10 14:20:00,
2013-09-10 10:21:00,82.8,51.6,30.24,NNE,22,3.6,3.6,34,0.00,,---,0.00,VWS V14.01,2013-09-10 14:21:00,
2013-09-10 10:23:00,83.1,51.9,30.24,NNW,329,4.0,4.9,34,0.00,,---,0.00,VWS V14.01,2013-09-10 14:23:00,
2013-09-10 10:24:00,83.1,51.9,30.24,NNW,337,5.4,5.4,34,0.00,,---,0.00,VWS V14.01,2013-09-10 14:24:00,
2013-09-10 10:25:00,83.5,51.4,30.24,WNW,294,4.9,4.9,33,0.00,,---,0.00,VWS V14.01,2013-09-10 14:25:00,
2013-09-10 10:26:00,83.5,51.4,30.24,WNW,303,5.8,5.8,33,0.00,,---,0.00,VWS V14.01,2013-09-10 14:26:00,
2013-09-10 10:28:00,83.5,51.4,30.24,NNE,30,2.7,2.7,33,0.00,,---,0.00,VWS V14.01,2013-09-10 14:28:00,
2013-09-10 10:29:00,83.7,51.5,30.24,NNE,30,2.7,2.7,33,0.00,,---,0.00,VWS V14.01,2013-09-10 14:29:00,
2013-09-10 10:30:00,83.7,49.8,30.24,NNE,30,2.7,2.7,31,0.00,,---,0.00,VWS V14.01,2013-09-10 14:30:00,
2013-09-10 10:31:00,83.7,50.7,30.24,NNE,30,2.7,2.7,32,0.00,,---,0.00,VWS V14.01,2013-09-10 14:31:00,
2013-09-10 10:33:00,83.7,49.8,30.24,North,10,3.1,3.1,31,0.00,,---,0.00,VWS V14.01,2013-09-10 14:33:00,
2013-09-10 10:34:00,83.7,49.8,30.24,North,10,3.1,3.1,31,0.00,,---,0.00,VWS V14.01,2013-09-10 14:34:00,
2013-09-10 10:35:00,83.5,50.5,30.24,North,10,3.1,3.1,32,0.00,,---,0.00,VWS V14.01,2013-09-10 14:35:00,
2013-09-10 10:36:00,83.5,50.5,30.24,North,10,3.1,3.1,32,0.00,,---,0.00,VWS V14.01,2013-09-10 14:36:00,
2013-09-10 10:38:00,83.3,50.4,30.24,NE,42,4.0,4.0,32,0.00,,---,0.00,VWS V14.01,2013-09-10 14:38:00,
2013-09-10 10:39:00,83.3,50.4,30.24,NE,42,4.0,4.0,32,0.00,,---,0.00,VWS V14.01,2013-09-10 14:39:00,
2013-09-10 10:40:00,83.3,49.5,30.24,NNW,337,4.0,4.0,31,0.00,,---,0.00,VWS V14.01,2013-09-10 14:40:00,
2013-09-10 10:41:00,83.3,49.5,30.24,NNW,337,4.0,4.0,31,0.00,,---,0.00,VWS V14.01,2013-09-10 14:41:00,
2013-09-10 10:43:00,83.3,49.5,30.24,NE,56,0.0,2.2,31,0.00,,---,0.00,VWS V14.01,2013-09-10 14:43:00,
2013-09-10 10:44:00,83.3,49.5,30.24,NE,56,0.0,2.2,31,0.00,,---,0.00,VWS V14.01,2013-09-10 14:44:00,
2013-09-10 10:45:00,83.3,49.5,30.24,SSE,158,0.0,4.0,31,0.00,,---,0.00,VWS V14.01,2013-09-10 14:45:00,
2013-09-10 10:46:00,83.5,50.5,30.24,SSE,158,0.0,0.0,32,0.00,,---,0.00,VWS V14.01,2013-09-10 14:46:00,
2013-09-10 10:49:00,83.7,50.7,30.24,NE,48,5.4,5.4,32,0.00,,---,0.00,VWS V14.01,2013-09-10 14:49:00,
2013-09-10 10:50:00,84.0,50.2,30.24,East,90,3.6,3.6,31,0.00,,---,0.00,VWS V14.01,2013-09-10 14:50:00,
2013-09-10 10:51:00,84.2,50.3,30.24,NNE,14,4.5,4.5,31,0.00,,---,0.00,VWS V14.01,2013-09-10 14:51:00,
2013-09-10 10:54:00,84.2,50.3,30.24,NNW,339,2.7,8.1,31,0.00,,---,0.00,VWS V14.01,2013-09-10 14:54:00,
2013-09-10 10:55:00,84.2,50.3,30.24,WNW,291,2.2,4.0,31,0.00,,---,0.00,VWS V14.01,2013-09-10 14:55:00,
2013-09-10 10:56:00,84.2,50.3,30.24,NNW,327,2.2,2.2,31,0.00,,---,0.00,VWS V14.01,2013-09-10 14:56:00,
2013-09-10 10:59:00,84.6,50.6,30.24,North,2,5.8,5.8,31,0.00,,---,0.00,VWS V14.01,2013-09-10 14:59:00,
2013-09-10 11:00:00,84.6,50.6,30.24,NNW,344,4.0,5.8,31,0.00,,---,0.00,VWS V14.01,2013-09-10 15:00:00,
2013-09-10 11:02:00,84.7,50.8,30.24,North,353,3.6,3.6,31,0.00,,---,0.00,VWS V14.01,2013-09-10 15:02:00,
2013-09-10 11:04:00,85.1,51.1,30.24,North,357,5.4,5.4,31,0.00,,---,0.00,VWS V14.01,2013-09-10 15:04:00,
2013-09-10 11:06:00,85.3,51.2,30.24,ENE,59,4.9,6.3,31,0.00,,---,0.00,VWS V14.01,2013-09-10 15:06:00,
2013-09-10 11:07:00,85.3,50.4,30.24,NNE,18,4.0,5.4,30,0.00,,---,0.00,VWS V14.01,2013-09-10 15:07:00,
2013-09-10 11:09:00,85.1,50.2,30.24,NE,52,5.4,5.4,30,0.00,,---,0.00,VWS V14.01,2013-09-10 15:09:00,
2013-09-10 11:11:00,85.1,50.2,30.24,NNE,23,5.8,5.8,30,0.00,,---,0.00,VWS V14.01,2013-09-10 15:11:00,
2013-09-10 11:12:00,84.7,49.9,30.24,NNE,23,5.8,5.8,30,0.00,,---,0.00,VWS V14.01,2013-09-10 15:12:00,
2013-09-10 11:14:00,84.7,49.9,30.24,North,353,3.1,6.3,30,0.00,,---,0.00,VWS V14.01,2013-09-10 15:14:00,
2013-09-10 11:16:00,84.6,49.8,30.24,North,2,3.1,5.4,30,0.00,,---,0.00,VWS V14.01,2013-09-10 15:16:00,
2013-09-10 11:17:00,84.6,50.6,30.24,North,2,3.1,3.1,31,0.00,,---,0.00,VWS V14.01,2013-09-10 15:17:00,
2013-09-10 11:19:00,84.6,50.6,30.24,ESE,116,3.1,3.1,31,0.00,,---,0.00,VWS V14.01,2013-09-10 15:19:00,
2013-09-10 11:20:00,84.6,50.6,30.24,WSW,252,3.6,3.6,31,0.00,,---,0.00,VWS V14.01,2013-09-10 15:20:00,
2013-09-10 11:21:00,85.1,51.1,30.24,WSW,252,3.6,3.6,31,0.00,,---,0.00,VWS V14.01,2013-09-10 15:21:00,
2013-09-10 11:22:00,85.1,51.1,30.24,WSW,252,3.6,3.6,31,0.00,,---,0.00,VWS V14.01,2013-09-10 15:22:00,
2013-09-10 11:23:00,85.1,51.1,30.24,NE,51,3.6,3.6,31,0.00,,---,0.00,VWS V14.01,2013-09-10 15:23:00,
2013-09-10 11:24:00,85.5,50.5,30.24,NE,51,3.6,3.6,30,0.00,,---,0.00,VWS V14.01,2013-09-10 15:24:00,
2013-09-10 11:25:00,85.5,50.5,30.24,NE,51,3.6,3.6,30,0.00,,---,0.00,VWS V14.01,2013-09-10 15:25:00,
2013-09-10 11:26:00,85.5,50.5,30.24,NE,51,3.6,3.6,30,0.00,,---,0.00,VWS V14.01,2013-09-10 15:26:00,
2013-09-10 11:27:00,85.5,50.5,30.24,NE,51,3.6,3.6,30,0.00,,---,0.00,VWS V14.01,2013-09-10 15:27:00,
2013-09-10 11:29:00,85.6,50.7,30.24,NE,51,3.6,3.6,30,0.00,,---,0.00,VWS V14.01,2013-09-10 15:29:00,
2013-09-10 11:30:00,85.8,50.8,30.24,NE,51,3.6,3.6,30,0.00,,---,0.00,VWS V14.01,2013-09-10 15:30:00,
2013-09-10 11:31:00,85.8,50.8,30.24,NE,51,3.6,3.6,30,0.00,,---,0.00,VWS V14.01,2013-09-10 15:31:00,
2013-09-10 11:32:00,85.8,50.8,30.24,NE,51,3.6,3.6,30,0.00,,---,0.00,VWS V14.01,2013-09-10 15:32:00,
2013-09-10 11:34:00,86.0,50.1,30.24,NE,51,3.6,3.6,29,0.00,,---,0.00,VWS V14.01,2013-09-10 15:34:00,
2013-09-10 11:35:00,86.0,50.1,30.24,NE,51,3.6,3.6,29,0.00,,---,0.00,VWS V14.01,2013-09-10 15:35:00,
2013-09-10 11:36:00,86.0,50.1,30.24,NE,51,3.6,3.6,29,0.00,,---,0.00,VWS V14.01,2013-09-10 15:36:00,
2013-09-10 11:37:00,86.0,50.1,30.24,ENE,59,4.0,4.0,29,0.00,,---,0.00,VWS V14.01,2013-09-10 15:37:00,
2013-09-10 11:39:00,86.0,50.1,30.24,ENE,59,4.0,4.0,29,0.00,,---,0.00,VWS V14.01,2013-09-10 15:39:00,
2013-09-10 11:40:00,86.0,50.1,30.24,ENE,59,4.0,4.0,29,0.00,,---,0.00,VWS V14.01,2013-09-10 15:40:00,
2013-09-10 11:41:00,85.8,50.8,30.21,ENE,59,4.0,4.0,30,0.00,,---,0.00,VWS V14.01,2013-09-10 15:41:00,
2013-09-10 11:42:00,85.8,50.8,30.21,ENE,59,4.0,4.0,30,0.00,,---,0.00,VWS V14.01,2013-09-10 15:42:00,
2013-09-10 11:44:00,85.8,50.8,30.21,ENE,59,4.0,4.0,30,0.00,,---,0.00,VWS V14.01,2013-09-10 15:44:00,
2013-09-10 11:45:00,85.8,50.8,30.21,ENE,59,4.0,4.0,30,0.00,,---,0.00,VWS V14.01,2013-09-10 15:45:00,
2013-09-10 11:46:00,86.2,50.2,30.21,ENE,59,4.0,4.0,29,0.00,,---,0.00,VWS V14.01,2013-09-10 15:46:00,
2013-09-10 11:47:00,86.4,50.4,30.21,ENE,59,4.0,4.0,29,0.00,,---,0.00,VWS V14.01,2013-09-10 15:47:00,
2013-09-10 11:49:00,86.4,50.4,30.21,ENE,59,4.0,4.0,29,0.00,,---,0.00,VWS V14.01,2013-09-10 15:49:00,
2013-09-10 11:50:00,86.5,51.5,30.21,ENE,59,4.0,4.0,30,0.00,,---,0.00,VWS V14.01,2013-09-10 15:50:00,
2013-09-10 11:51:00,86.7,50.7,30.21,ENE,59,4.0,4.0,29,0.00,,---,0.00,VWS V14.01,2013-09-10 15:51:00,
2013-09-10 11:53:00,86.7,50.7,30.24,ENE,59,4.0,4.0,29,0.00,,---,0.00,VWS V14.01,2013-09-10 15:53:00,
2013-09-10 11:54:00,86.7,50.7,30.24,ENE,59,4.0,4.0,29,0.00,,---,0.00,VWS V14.01,2013-09-10 15:54:00,
2013-09-10 11:55:00,86.5,50.5,30.24,ENE,59,4.0,4.0,29,0.00,,---,0.00,VWS V14.01,2013-09-10 15:55:00,
2013-09-10 11:56:00,86.5,50.5,30.24,ENE,59,4.0,4.0,29,0.00,,---,0.00,VWS V14.01,2013-09-10 15:56:00,
2013-09-10 11:58:00,86.2,50.2,30.24,NNE,19,7.2,7.2,29,0.00,,---,0.00,VWS V14.01,2013-09-10 15:58:00,
2013-09-10 11:59:00,86.2,50.2,30.24,NNE,19,7.2,7.2,29,0.00,,---,0.00,VWS V14.01,2013-09-10 15:59:00,
2013-09-10 12:00:00,86.2,50.2,30.24,NNE,19,7.2,7.2,29,0.00,,---,0.00,VWS V14.01,2013-09-10 16:00:00,
2013-09-10 12:01:00,86.4,50.4,30.24,NNE,19,7.2,7.2,29,0.00,,---,0.00,VWS V14.01,2013-09-10 16:01:00,
2013-09-10 12:03:00,86.5,50.5,30.24,NNE,19,7.2,7.2,29,0.00,,---,0.00,VWS V14.01,2013-09-10 16:03:00,
2013-09-10 12:04:00,86.7,50.7,30.24,NNE,19,7.2,7.2,29,0.00,,---,0.00,VWS V14.01,2013-09-10 16:04:00,
2013-09-10 12:05:00,86.7,50.7,30.24,NNE,19,7.2,7.2,29,0.00,,---,0.00,VWS V14.01,2013-09-10 16:05:00,
2013-09-10 12:06:00,86.7,50.7,30.24,WSW,238,0.0,0.0,29,0.00,,---,0.00,VWS V14.01,2013-09-10 16:06:00,
2013-09-10 12:08:00,86.5,50.5,30.24,WSW,238,0.0,0.0,29,0.00,,---,0.00,VWS V14.01,2013-09-10 16:08:00,
2013-09-10 12:09:00,86.5,50.5,30.24,WSW,238,0.0,0.0,29,0.00,,---,0.00,VWS V14.01,2013-09-10 16:09:00,
2013-09-10 12:10:00,86.5,50.5,30.24,WSW,238,0.0,0.0,29,0.00,,---,0.00,VWS V14.01,2013-09-10 16:10:00,
2013-09-10 12:11:00,86.5,50.5,30.24,WSW,238,0.0,0.0,29,0.00,,---,0.00,VWS V14.01,2013-09-10 16:11:00,
2013-09-10 12:13:00,86.5,50.5,30.24,WSW,238,0.0,0.0,29,0.00,,---,0.00,VWS V14.01,2013-09-10 16:13:00,
2013-09-10 12:14:00,86.5,50.5,30.24,WSW,238,0.0,0.0,29,0.00,,---,0.00,VWS V14.01,2013-09-10 16:14:00,
2013-09-10 12:15:00,86.4,50.4,30.24,WSW,238,0.0,0.0,29,0.00,,---,0.00,VWS V14.01,2013-09-10 16:15:00,
2013-09-10 12:16:00,86.4,50.4,30.24,NE,44,5.8,5.8,29,0.00,,---,0.00,VWS V14.01,2013-09-10 16:16:00,
2013-09-10 12:18:00,86.0,50.1,30.24,East,99,5.4,5.8,29,0.00,,---,0.00,VWS V14.01,2013-09-10 16:18:00,
2013-09-10 12:19:00,86.0,50.1,30.24,East,99,3.1,5.8,29,0.00,,---,0.00,VWS V14.01,2013-09-10 16:19:00,
2013-09-10 12:20:00,86.0,50.1,30.24,NE,49,3.1,3.1,29,0.00,,---,0.00,VWS V14.01,2013-09-10 16:20:00,
2013-09-10 12:21:00,86.0,50.1,30.24,NE,44,2.7,3.1,29,0.00,,---,0.00,VWS V14.01,2013-09-10 16:21:00,
2013-09-10 12:24:00,86.5,50.5,30.24,East,92,7.6,7.6,29,0.00,,---,0.00,VWS V14.01,2013-09-10 16:24:00,
2013-09-10 12:26:00,86.7,50.7,30.24,NE,45,0.0,4.0,29,0.00,,---,0.00,VWS V14.01,2013-09-10 16:26:00,
2013-09-10 12:29:00,86.7,50.7,30.24,ESE,116,5.4,5.4,29,0.00,,---,0.00,VWS V14.01,2013-09-10 16:29:00,
2013-09-10 12:31:00,86.9,50.8,30.24,NE,54,3.1,3.1,29,0.00,,---,0.00,VWS V14.01,2013-09-10 16:31:00,
2013-09-10 12:32:00,86.9,50.8,30.24,NE,54,3.1,3.1,29,0.00,,---,0.00,VWS V14.01,2013-09-10 16:32:00,
2013-09-10 12:34:00,86.7,50.7,30.24,North,353,4.0,6.3,29,0.00,,---,0.00,VWS V14.01,2013-09-10 16:34:00,
2013-09-10 12:36:00,86.7,50.7,30.24,ENE,78,3.1,3.1,29,0.00,,---,0.00,VWS V14.01,2013-09-10 16:36:00,
2013-09-10 12:37:00,86.7,50.7,30.24,ENE,78,3.1,3.1,29,0.00,,---,0.00,VWS V14.01,2013-09-10 16:37:00,
2013-09-10 12:39:00,86.4,50.4,30.24,WSW,238,3.1,3.1,29,0.00,,---,0.00,VWS V14.01,2013-09-10 16:39:00,
2013-09-10 12:41:00,86.4,50.4,30.24,North,11,7.6,7.6,29,0.00,,---,0.00,VWS V14.01,2013-09-10 16:41:00,
2013-09-10 12:42:00,86.4,50.4,30.24,North,11,7.6,7.6,29,0.00,,---,0.00,VWS V14.01,2013-09-10 16:42:00,
2013-09-10 12:44:00,86.0,50.1,30.24,ESE,109,5.4,6.3,29,0.00,,---,0.00,VWS V14.01,2013-09-10 16:44:00,
2013-09-10 12:46:00,86.0,50.1,30.24,NE,40,4.0,4.0,29,0.00,,---,0.00,VWS V14.01,2013-09-10 16:46:00,
2013-09-10 12:47:00,86.0,50.1,30.24,ENE,62,8.3,8.3,29,0.00,,---,0.00,VWS V14.01,2013-09-10 16:47:00,
2013-09-10 12:49:00,86.0,50.1,30.24,North,353,5.8,6.3,29,0.00,,---,0.00,VWS V14.01,2013-09-10 16:49:00,
2013-09-10 12:51:00,86.0,50.1,30.24,NNE,19,8.3,8.3,29,0.00,,---,0.00,VWS V14.01,2013-09-10 16:51:00,
2013-09-10 12:52:00,85.5,49.6,30.24,NE,41,6.3,8.3,29,0.00,,---,0.00,VWS V14.01,2013-09-10 16:52:00,
2013-09-10 12:54:00,85.3,49.5,30.24,East,99,5.4,5.8,29,0.00,,---,0.00,VWS V14.01,2013-09-10 16:54:00,
2013-09-10 12:55:00,85.3,49.5,30.24,East,89,3.1,5.4,29,0.00,,---,0.00,VWS V14.01,2013-09-10 16:55:00,
2013-09-10 12:56:00,85.3,50.4,30.24,East,89,3.1,3.1,30,0.00,,---,0.00,VWS V14.01,2013-09-10 16:56:00,
2013-09-10 12:57:00,85.3,50.4,30.24,East,89,3.1,3.1,30,0.00,,---,0.00,VWS V14.01,2013-09-10 16:57:00,
2013-09-10 12:59:00,85.3,50.4,30.24,East,89,3.1,3.1,30,0.00,,---,0.00,VWS V14.01,2013-09-10 16:59:00,
2013-09-10 13:00:00,85.3,50.4,30.24,East,89,3.1,3.1,30,0.00,,---,0.00,VWS V14.01,2013-09-10 17:00:00,
2013-09-10 13:01:00,85.3,50.4,30.24,East,89,3.1,3.1,30,0.00,,---,0.00,VWS V14.01,2013-09-10 17:01:00,
2013-09-10 13:02:00,85.3,50.4,30.24,East,91,2.7,3.1,30,0.00,,---,0.00,VWS V14.01,2013-09-10 17:02:00,
2013-09-10 13:04:00,85.3,50.4,30.24,North,8,3.6,3.6,30,0.00,,---,0.00,VWS V14.01,2013-09-10 17:04:00,
2013-09-10 13:05:00,85.3,50.4,30.24,North,8,3.6,3.6,30,0.00,,---,0.39,VWS V14.01,2013-09-10 17:05:00,
2013-09-10 13:06:00,85.3,50.4,30.24,North,8,3.6,3.6,30,0.00,,---,0.00,VWS V14.01,2013-09-10 17:06:00,
2013-09-10 13:07:00,85.3,50.4,30.24,North,8,3.6,3.6,30,0.00,,---,0.00,VWS V14.01,2013-09-10 17:07:00,
2013-09-10 13:09:00,85.3,50.4,30.24,North,8,3.6,3.6,30,0.00,,---,0.00,VWS V14.01,2013-09-10 17:09:00,
2013-09-10 13:10:00,84.9,50.1,30.24,North,8,3.6,3.6,30,0.00,,---,0.00,VWS V14.01,2013-09-10 17:10:00,
2013-09-10 13:11:00,84.9,50.1,30.24,North,8,3.6,3.6,30,0.00,,---,0.00,VWS V14.01,2013-09-10 17:11:00,
2013-09-10 13:12:00,84.7,49.9,30.24,North,3,2.2,4.9,30,0.00,,---,0.00,VWS V14.01,2013-09-10 17:12:00,
2013-09-10 13:13:00,84.7,49.9,30.24,North,3,4.0,4.0,30,0.00,,---,0.00,VWS V14.01,2013-09-10 17:13:00,
2013-09-10 13:14:00,84.7,49.9,30.24,North,3,4.0,4.0,30,0.00,,---,0.00,VWS V14.01,2013-09-10 17:14:00,
2013-09-10 13:15:00,84.7,49.9,30.24,North,3,4.0,4.0,30,0.00,,---,0.00,VWS V14.01,2013-09-10 17:15:00,
2013-09-10 13:16:00,84.7,49.9,30.24,North,3,4.0,4.0,30,0.00,,---,0.00,VWS V14.01,2013-09-10 17:16:00,
2013-09-10 13:17:00,84.7,49.9,30.24,North,3,4.0,4.0,30,0.00,,---,0.00,VWS V14.01,2013-09-10 17:17:00,
2013-09-10 13:18:00,84.7,49.9,30.24,North,3,4.0,4.0,30,0.00,,---,0.00,VWS V14.01,2013-09-10 17:18:00,
2013-09-10 13:19:00,84.7,49.9,30.24,North,3,4.0,4.0,30,0.00,,---,0.00,VWS V14.01,2013-09-10 17:19:00,
2013-09-10 13:21:00,85.5,50.5,30.24,North,3,4.0,4.0,30,0.00,,---,0.00,VWS V14.01,2013-09-10 17:21:00,
2013-09-10 13:22:00,85.6,51.6,30.24,North,3,4.0,4.0,31,0.00,,---,0.00,VWS V14.01,2013-09-10 17:22:00,
2013-09-10 13:23:00,85.6,51.6,30.24,North,3,4.0,4.0,31,0.00,,---,0.00,VWS V14.01,2013-09-10 17:23:00,
2013-09-10 13:24:00,85.6,51.6,30.24,East,88,5.4,5.4,31,0.00,,---,0.00,VWS V14.01,2013-09-10 17:24:00,
2013-09-10 13:26:00,85.5,51.4,30.24,East,88,5.4,5.4,31,0.00,,---,0.00,VWS V14.01,2013-09-10 17:26:00,
2013-09-10 13:27:00,85.5,51.4,30.24,East,88,5.4,5.4,31,0.00,,---,0.00,VWS V14.01,2013-09-10 17:27:00,
2013-09-10 13:28:00,85.5,51.4,30.24,East,88,5.4,5.4,31,0.00,,---,0.00,VWS V14.01,2013-09-10 17:28:00,
2013-09-10 13:29:00,85.5,51.4,30.24,SE,132,5.8,5.8,31,0.00,,---,0.00,VWS V14.01,2013-09-10 17:29:00,
2013-09-10 13:31:00,84.7,51.6,30.24,SE,132,5.4,5.4,32,0.00,,---,0.00,VWS V14.01,2013-09-10 17:31:00,
2013-09-10 13:32:00,84.6,51.5,30.24,SE,137,3.6,8.1,32,0.00,,---,0.00,VWS V14.01,2013-09-10 17:32:00,
2013-09-10 13:33:00,84.6,51.5,30.24,South,173,5.8,5.8,32,0.00,,---,0.00,VWS V14.01,2013-09-10 17:33:00,
2013-09-10 13:34:00,84.6,51.5,30.24,SSE,157,5.4,5.4,32,0.00,,---,0.00,VWS V14.01,2013-09-10 17:34:00,
2013-09-10 13:36:00,84.9,51.8,30.24,SSE,160,7.6,7.6,32,0.00,,---,0.00,VWS V14.01,2013-09-10 17:36:00,
2013-09-10 13:37:00,84.9,51.8,30.24,East,101,6.3,7.6,32,0.00,,---,0.00,VWS V14.01,2013-09-10 17:37:00,
2013-09-10 13:38:00,85.5,51.4,30.24,SE,142,3.6,4.9,31,0.00,,---,0.00,VWS V14.01,2013-09-10 17:38:00,
2013-09-10 13:39:00,85.5,51.4,30.24,SE,124,5.4,5.4,31,0.00,,---,0.00,VWS V14.01,2013-09-10 17:39:00,
2013-09-10 13:41:00,85.8,51.7,30.24,SE,131,4.0,4.0,31,0.00,,---,0.00,VWS V14.01,2013-09-10 17:41:00,
2013-09-10 13:42:00,85.8,51.7,30.24,SE,136,3.1,4.0,31,0.00,,---,0.00,VWS V14.01,2013-09-10 17:42:00,
2013-09-10 13:43:00,85.8,51.7,30.24,SSE,157,4.0,4.0,31,0.00,,---,0.00,VWS V14.01,2013-09-10 17:43:00,
2013-09-10 13:44:00,86.4,53.0,30.24,SSW,202,3.6,3.6,32,0.00,,---,0.00,VWS V14.01,2013-09-10 17:44:00,
2013-09-10 13:46:00,86.5,52.3,30.24,SE,130,10.1,10.1,31,0.00,,---,0.00,VWS V14.01,2013-09-10 17:46:00,
2013-09-10 13:47:00,86.5,52.3,30.24,East,94,5.4,10.1,31,0.00,,---,0.00,VWS V14.01,2013-09-10 17:47:00,
2013-09-10 13:48:00,86.5,52.3,30.24,SE,128,6.3,6.3,31,0.00,,---,0.00,VWS V14.01,2013-09-10 17:48:00,
2013-09-10 13:49:00,86.2,52.0,30.24,SE,146,5.4,6.3,31,0.00,,---,0.00,VWS V14.01,2013-09-10 17:49:00,
2013-09-10 13:52:00,85.5,52.3,30.24,SSE,159,5.4,5.4,32,0.00,,---,0.00,VWS V14.01,2013-09-10 17:52:00,
2013-09-10 13:54:00,84.7,51.6,30.24,South,174,7.6,7.6,32,0.00,,---,0.00,VWS V14.01,2013-09-10 17:54:00,
2013-09-10 13:57:00,84.6,52.3,30.24,SSW,213,2.7,6.3,33,0.00,,---,0.00,VWS V14.01,2013-09-10 17:57:00,
2013-09-10 13:59:00,84.4,52.2,30.24,SE,144,4.0,4.0,33,0.00,,---,0.00,VWS V14.01,2013-09-10 17:59:00,
2013-09-10 14:02:00,84.6,52.3,30.24,SE,142,5.8,6.3,33,0.00,,---,0.00,VWS V14.01,2013-09-10 18:02:00,
2013-09-10 14:04:00,84.9,51.8,30.24,East,81,5.8,5.8,32,0.00,,---,0.00,VWS V14.01,2013-09-10 18:04:00,
2013-09-10 14:05:00,84.9,51.8,30.24,SSE,152,3.1,5.8,32,0.00,,---,0.00,VWS V14.01,2013-09-10 18:05:00,
2013-09-10 14:07:00,84.9,51.8,30.24,East,97,3.6,4.0,32,0.00,,---,0.00,VWS V14.01,2013-09-10 18:07:00,
2013-09-10 14:08:00,84.9,51.8,30.24,South,178,2.2,2.7,32,0.00,,---,0.00,VWS V14.01,2013-09-10 18:08:00,
2013-09-10 14:09:00,84.9,51.8,30.21,South,187,0.0,0.0,32,0.00,,---,0.00,VWS V14.01,2013-09-10 18:09:00,
2013-09-10 14:10:00,84.9,51.8,30.21,South,190,0.0,0.0,32,0.00,,---,0.00,VWS V14.01,2013-09-10 18:10:00,
2013-09-10 14:12:00,84.9,51.8,30.21,SW,229,3.6,3.6,32,0.00,,---,0.00,VWS V14.01,2013-09-10 18:12:00,
2013-09-10 14:13:00,84.9,51.8,30.21,SSE,164,3.1,3.1,32,0.00,,---,0.00,VWS V14.01,2013-09-10 18:13:00,
2013-09-10 14:14:00,84.9,51.8,30.21,SSW,212,4.0,4.9,32,0.00,,---,0.00,VWS V14.01,2013-09-10 18:14:00,
2013-09-10 14:15:00,84.9,51.8,30.21,SSW,212,4.0,4.9,32,0.00,,---,0.00,VWS V14.01,2013-09-10 18:15:00,
2013-09-10 14:17:00,85.1,51.1,30.21,SSE,151,5.8,8.3,31,0.00,,---,0.00,VWS V14.01,2013-09-10 18:17:00,
2013-09-10 14:18:00,85.1,51.1,30.21,South,183,4.9,5.8,31,0.00,,---,0.00,VWS V14.01,2013-09-10 18:18:00,
2013-09-10 14:19:00,85.1,51.1,30.21,South,183,4.9,4.9,31,0.00,,---,0.00,VWS V14.01,2013-09-10 18:19:00,
2013-09-10 14:20:00,85.1,51.1,30.21,SE,137,2.7,2.7,31,0.00,,---,0.00,VWS V14.01,2013-09-10 18:20:00,
2013-09-10 14:22:00,85.1,51.1,30.21,SSW,201,4.0,5.8,31,0.00,,---,0.00,VWS V14.01,2013-09-10 18:22:00,
2013-09-10 14:23:00,85.1,51.1,30.21,SSE,157,3.1,4.0,31,0.00,,---,0.00,VWS V14.01,2013-09-10 18:23:00,
2013-09-10 14:24:00,85.1,51.1,30.21,South,172,4.0,4.0,31,0.00,,---,0.00,VWS V14.01,2013-09-10 18:24:00,
2013-09-10 14:25:00,84.9,50.9,30.21,South,181,3.1,4.0,31,0.00,,---,0.00,VWS V14.01,2013-09-10 18:25:00,
2013-09-10 14:27:00,84.7,50.8,30.21,SSW,200,2.7,2.7,31,0.00,,---,0.00,VWS V14.01,2013-09-10 18:27:00,
2013-09-10 14:28:00,84.7,50.8,30.21,South,170,2.2,3.1,31,0.00,,---,0.00,VWS V14.01,2013-09-10 18:28:00,
2013-09-10 14:29:00,84.7,50.8,30.21,South,172,3.6,3.6,31,0.00,,---,0.00,VWS V14.01,2013-09-10 18:29:00,
2013-09-10 14:30:00,84.6,50.6,30.21,SSW,198,0.0,3.6,31,0.00,,---,0.00,VWS V14.01,2013-09-10 18:30:00,
2013-09-10 14:32:00,84.2,50.3,30.21,WSW,253,0.0,0.0,31,0.00,,---,0.00,VWS V14.01,2013-09-10 18:32:00,
2013-09-10 14:33:00,84.2,50.3,30.21,North,11,0.0,2.7,31,0.00,,---,0.00,VWS V14.01,2013-09-10 18:33:00,
2013-09-10 14:34:00,84.2,51.2,30.21,North,11,0.0,0.0,32,0.00,,---,0.00,VWS V14.01,2013-09-10 18:34:00,
2013-09-10 14:35:00,84.2,51.2,30.21,North,11,0.0,0.0,32,0.00,,---,0.00,VWS V14.01,2013-09-10 18:35:00,
2013-09-10 14:36:00,84.2,50.3,30.21,NE,52,0.0,0.0,31,0.00,,---,0.00,VWS V14.01,2013-09-10 18:36:00,
2013-09-10 14:37:00,84.2,50.3,30.21,NE,52,0.0,0.0,31,0.00,,---,0.00,VWS V14.01,2013-09-10 18:37:00,
2013-09-10 14:38:00,84.4,49.6,30.21,NE,52,0.0,0.0,30,0.00,,---,0.00,VWS V14.01,2013-09-10 18:38:00,
2013-09-10 14:40:00,84.4,49.6,30.21,West,279,3.1,4.9,30,0.00,,---,0.00,VWS V14.01,2013-09-10 18:40:00,
2013-09-10 14:41:00,84.6,50.6,30.21,West,265,3.6,3.6,31,0.00,,---,0.00,VWS V14.01,2013-09-10 18:41:00,
2013-09-10 14:42:00,84.6,50.6,30.21,South,174,3.6,3.6,31,0.00,,---,0.00,VWS V14.01,2013-09-10 18:42:00,
2013-09-10 14:43:00,84.7,50.8,30.21,ESE,116,3.1,3.1,31,0.00,,---,0.00,VWS V14.01,2013-09-10 18:43:00,
2013-09-10 14:45:00,84.6,49.8,30.21,East,96,3.6,3.6,30,0.00,,---,0.00,VWS V14.01,2013-09-10 18:45:00,
2013-09-10 14:46:00,84.6,49.8,30.21,South,178,5.8,5.8,30,0.00,,---,0.00,VWS V14.01,2013-09-10 18:46:00,
2013-09-10 14:47:00,84.6,49.8,30.21,South,178,5.8,5.8,30,0.00,,---,0.00,VWS V14.01,2013-09-10 18:47:00,
2013-09-10 14:48:00,84.6,49.8,30.21,ESE,119,4.9,5.8,30,0.00,,---,0.00,VWS V14.01,2013-09-10 18:48:00,
2013-09-10 14:50:00,84.6,49.8,30.21,ESE,107,6.3,6.3,30,0.00,,---,0.00,VWS V14.01,2013-09-10 18:50:00,
2013-09-10 14:51:00,84.6,49.8,30.21,East,97,5.4,6.3,30,0.00,,---,0.00,VWS V14.01,2013-09-10 18:51:00,
2013-09-10 14:52:00,84.6,49.8,30.21,NE,54,5.4,5.4,30,0.00,,---,0.00,VWS V14.01,2013-09-10 18:52:00,
2013-09-10 14:53:00,84.7,49.9,30.21,SSE,147,4.0,4.0,30,0.00,,---,0.00,VWS V14.01,2013-09-10 18:53:00,
2013-09-10 14:54:00,85.1,50.2,30.21,SSE,155,4.0,4.0,30,0.00,,---,0.00,VWS V14.01,2013-09-10 18:54:00,
2013-09-10 14:55:00,85.1,50.2,30.21,SSE,155,4.0,4.0,30,0.00,,---,0.00,VWS V14.01,2013-09-10 18:55:00,
2013-09-10 14:56:00,85.1,50.2,30.21,SE,142,2.7,2.7,30,0.00,,---,0.00,VWS V14.01,2013-09-10 18:56:00,
2013-09-10 14:57:00,85.5,50.5,30.21,SE,125,7.2,7.2,30,0.00,,---,0.00,VWS V14.01,2013-09-10 18:57:00,
2013-09-10 14:58:00,85.6,50.7,30.21,SE,124,10.5,10.5,30,0.00,,---,0.00,VWS V14.01,2013-09-10 18:58:00,
2013-09-10 15:00:00,85.8,50.8,30.21,South,170,5.4,5.8,30,0.00,,---,0.00,VWS V14.01,2013-09-10 19:00:00,
2013-09-10 15:01:00,85.8,50.8,30.21,South,170,5.4,5.4,30,0.00,,---,0.00,VWS V14.01,2013-09-10 19:01:00,
2013-09-10 15:02:00,85.8,50.8,30.21,ESE,119,8.7,8.7,30,0.00,,---,0.00,VWS V14.01,2013-09-10 19:02:00,
2013-09-10 15:03:00,85.8,50.8,30.21,ESE,119,5.8,11.0,30,0.00,,---,0.00,VWS V14.01,2013-09-10 19:03:00,
2013-09-10 15:05:00,85.6,50.7,30.21,ESE,102,8.1,8.7,30,0.00,,---,0.00,VWS V14.01,2013-09-10 19:05:00,
2013-09-10 15:06:00,85.8,50.8,30.21,SE,130,4.9,7.6,30,0.00,,---,0.00,VWS V14.01,2013-09-10 19:06:00,
2013-09-10 15:07:00,85.8,50.8,30.21,SSE,163,4.0,4.0,30,0.00,,---,0.00,VWS V14.01,2013-09-10 19:07:00,
2013-09-10 15:08:00,85.8,50.8,30.21,ESE,119,6.3,6.3,30,0.00,,---,0.00,VWS V14.01,2013-09-10 19:08:00,
2013-09-10 15:10:00,86.4,50.4,30.21,East,93,4.9,6.3,29,0.00,,---,0.00,VWS V14.01,2013-09-10 19:10:00,
2013-09-10 15:11:00,86.5,50.5,30.21,SE,132,5.4,5.4,29,0.00,,---,0.00,VWS V14.01,2013-09-10 19:11:00,
2013-09-10 15:12:00,86.5,50.5,30.21,East,95,5.4,5.4,29,0.00,,---,0.00,VWS V14.01,2013-09-10 19:12:00,
2013-09-10 15:13:00,86.4,50.4,30.21,East,95,5.4,5.4,29,0.00,,---,0.00,VWS V14.01,2013-09-10 19:13:00,
2013-09-10 15:15:00,86.0,50.1,30.21,East,95,5.4,5.4,29,0.00,,---,0.00,VWS V14.01,2013-09-10 19:15:00,
2013-09-10 15:16:00,85.6,50.7,30.21,ESE,122,5.8,5.8,30,0.00,,---,0.00,VWS V14.01,2013-09-10 19:16:00,
2013-09-10 15:17:00,85.6,50.7,30.21,ESE,122,5.8,5.8,30,0.00,,---,0.00,VWS V14.01,2013-09-10 19:17:00,
2013-09-10 15:18:00,85.6,50.7,30.21,ESE,116,5.8,5.8,30,0.00,,---,0.00,VWS V14.01,2013-09-10 19:18:00,
2013-09-10 15:20:00,85.3,50.4,30.21,East,97,5.4,5.4,30,0.00,,---,0.00,VWS V14.01,2013-09-10 19:20:00,
2013-09-10 15:21:00,85.3,50.4,30.21,East,99,3.6,3.6,30,0.00,,---,0.00,VWS V14.01,2013-09-10 19:21:00,
2013-09-10 15:22:00,85.5,50.5,30.21,East,99,3.6,3.6,30,0.00,,---,0.00,VWS V14.01,2013-09-10 19:22:00,
2013-09-10 15:23:00,85.5,50.5,30.21,East,93,8.3,8.3,30,0.00,,---,0.00,VWS V14.01,2013-09-10 19:23:00,
2013-09-10 15:25:00,85.6,50.7,30.21,East,93,8.3,8.3,30,0.00,,---,0.00,VWS V14.01,2013-09-10 19:25:00,
2013-09-10 15:27:00,85.6,50.7,30.21,SE,125,8.3,8.3,30,0.00,,---,0.00,VWS V14.01,2013-09-10 19:27:00,
2013-09-10 15:28:00,86.0,50.1,30.21,SE,137,3.6,4.9,29,0.00,,---,0.00,VWS V14.01,2013-09-10 19:28:00,
2013-09-10 15:30:00,86.4,50.4,30.21,SE,137,3.6,3.6,29,0.00,,---,0.00,VWS V14.01,2013-09-10 19:30:00,
2013-09-10 15:32:00,86.5,50.5,30.21,SE,137,3.6,3.6,29,0.00,,---,0.00,VWS V14.01,2013-09-10 19:32:00,
2013-09-10 15:33:00,86.5,50.5,30.21,East,98,5.4,5.4,29,0.00,,---,0.00,VWS V14.01,2013-09-10 19:33:00,
2013-09-10 15:35:00,86.5,50.5,30.21,East,98,5.4,5.4,29,0.00,,---,0.00,VWS V14.01,2013-09-10 19:35:00,
2013-09-10 15:37:00,86.4,50.4,30.21,East,98,5.4,5.4,29,0.00,,---,0.00,VWS V14.01,2013-09-10 19:37:00,
2013-09-10 15:38:00,86.2,50.2,30.21,ESE,121,8.1,8.1,29,0.00,,---,0.00,VWS V14.01,2013-09-10 19:38:00,
2013-09-10 15:40:00,86.2,50.2,30.21,SE,125,10.1,10.1,29,0.00,,---,0.00,VWS V14.01,2013-09-10 19:40:00,
2013-09-10 15:42:00,86.2,50.2,30.21,ESE,111,5.4,5.4,29,0.00,,---,0.00,VWS V14.01,2013-09-10 19:42:00,
2013-09-10 15:43:00,86.2,50.2,30.21,ESE,106,6.3,6.3,29,0.00,,---,0.00,VWS V14.01,2013-09-10 19:43:00,
2013-09-10 15:45:00,86.2,50.2,30.21,ESE,106,5.8,8.3,29,0.00,,---,0.00,VWS V14.01,2013-09-10 19:45:00,
2013-09-10 15:47:00,85.5,50.5,30.21,SE,138,3.6,3.6,30,0.00,,---,0.00,VWS V14.01,2013-09-10 19:47:00,
2013-09-10 15:48:00,85.5,50.5,30.21,SE,138,3.6,3.6,30,0.00,,---,0.00,VWS V14.01,2013-09-10 19:48:00,
2013-09-10 15:50:00,85.5,50.5,30.21,East,90,6.3,6.3,30,0.00,,---,0.00,VWS V14.01,2013-09-10 19:50:00,
2013-09-10 15:53:00,85.5,50.5,30.21,SE,137,8.3,8.3,30,0.00,,---,0.00,VWS V14.01,2013-09-10 19:53:00,
2013-09-10 15:55:00,85.5,50.5,30.21,SE,130,8.3,8.3,30,0.00,,---,0.00,VWS V14.01,2013-09-10 19:55:00,
2013-09-10 15:58:00,85.3,50.4,30.21,SE,137,7.6,8.3,30,0.00,,---,0.00,VWS V14.01,2013-09-10 19:58:00,
2013-09-10 16:00:00,85.3,50.4,30.21,ENE,71,5.8,5.8,30,0.00,,---,0.00,VWS V14.01,2013-09-10 20:00:00,
2013-09-10 16:03:00,85.3,50.4,30.21,East,100,5.4,5.4,30,0.00,,---,0.00,VWS V14.01,2013-09-10 20:03:00,
2013-09-10 16:04:00,85.1,50.2,30.21,East,100,5.4,5.4,30,0.00,,---,0.00,VWS V14.01,2013-09-10 20:04:00,
2013-09-10 16:05:00,85.1,50.2,30.21,East,100,5.4,5.4,30,0.00,,---,0.00,VWS V14.01,2013-09-10 20:05:00,
2013-09-10 16:08:00,84.9,50.1,30.21,East,100,5.4,5.4,30,0.00,,---,0.00,VWS V14.01,2013-09-10 20:08:00,
2013-09-10 16:09:00,84.9,50.1,30.21,East,100,5.4,5.4,30,0.00,,---,0.00,VWS V14.01,2013-09-10 20:09:00,
2013-09-10 16:10:00,84.9,50.1,30.21,ESE,123,6.3,6.3,30,0.00,,---,0.00,VWS V14.01,2013-09-10 20:10:00,
2013-09-10 16:13:00,84.9,50.1,30.21,ESE,123,6.3,6.3,30,0.00,,---,0.00,VWS V14.01,2013-09-10 20:13:00,
2013-09-10 16:14:00,84.9,50.1,30.21,SE,140,6.3,10.5,30,0.00,,---,0.00,VWS V14.01,2013-09-10 20:14:00,
2013-09-10 16:15:00,84.9,50.1,30.21,ESE,110,8.7,8.7,30,0.00,,---,0.00,VWS V14.01,2013-09-10 20:15:00,
2013-09-10 16:18:00,84.4,49.6,30.21,East,95,7.6,7.6,30,0.00,,---,0.00,VWS V14.01,2013-09-10 20:18:00,
2013-09-10 16:19:00,84.4,49.6,30.21,ESE,121,5.4,7.6,30,0.00,,---,0.00,VWS V14.01,2013-09-10 20:19:00,
2013-09-10 16:20:00,84.4,49.6,30.21,East,94,6.3,6.3,30,0.00,,---,0.00,VWS V14.01,2013-09-10 20:20:00,
2013-09-10 16:23:00,84.4,49.6,30.21,ESE,112,8.3,8.3,30,0.00,,---,0.00,VWS V14.01,2013-09-10 20:23:00,
2013-09-10 16:24:00,84.2,49.4,30.21,East,96,9.6,9.6,30,0.00,,---,0.00,VWS V14.01,2013-09-10 20:24:00,
2013-09-10 16:25:00,84.2,49.4,30.21,SSE,147,10.1,12.3,30,0.00,,---,0.00,VWS V14.01,2013-09-10 20:25:00,
2013-09-10 16:28:00,83.8,49.1,30.21,ESE,116,6.3,8.1,30,0.00,,---,0.00,VWS V14.01,2013-09-10 20:28:00,
2013-09-10 16:29:00,83.8,49.1,30.21,ESE,116,6.3,6.3,30,0.00,,---,0.00,VWS V14.01,2013-09-10 20:29:00,
2013-09-10 16:30:00,83.8,49.1,30.21,SSE,162,7.6,7.6,30,0.00,,---,0.00,VWS V14.01,2013-09-10 20:30:00,
2013-09-10 16:33:00,84.2,49.4,30.21,SSE,156,5.4,5.4,30,0.00,,---,0.00,VWS V14.01,2013-09-10 20:33:00,
2013-09-10 16:34:00,84.2,49.4,30.21,ENE,58,5.8,5.8,30,0.00,,---,0.00,VWS V14.01,2013-09-10 20:34:00,
2013-09-10 16:35:00,84.2,49.4,30.21,ENE,58,5.8,5.8,30,0.00,,---,0.00,VWS V14.01,2013-09-10 20:35:00,
2013-09-10 16:38:00,84.2,49.4,30.18,ENE,58,5.8,5.8,30,0.00,,---,0.00,VWS V14.01,2013-09-10 20:38:00,
2013-09-10 16:39:00,84.0,50.2,30.18,SE,144,7.6,7.6,31,0.00,,---,0.00,VWS V14.01,2013-09-10 20:39:00,
2013-09-10 16:40:00,84.0,50.2,30.18,East,99,5.8,7.6,31,0.00,,---,0.00,VWS V14.01,2013-09-10 20:40:00,
2013-09-10 16:43:00,83.8,50.0,30.18,ENE,62,5.4,5.4,31,0.00,,---,0.00,VWS V14.01,2013-09-10 20:43:00,
2013-09-10 16:44:00,83.8,50.0,30.18,East,95,5.4,5.4,31,0.00,,---,0.00,VWS V14.01,2013-09-10 20:44:00,
2013-09-10 16:45:00,83.8,50.0,30.18,East,95,5.4,5.4,31,0.00,,---,0.00,VWS V14.01,2013-09-10 20:45:00,
2013-09-10 16:46:00,83.8,50.0,30.18,East,95,5.4,5.4,31,0.00,,---,0.00,VWS V14.01,2013-09-10 20:46:00,
2013-09-10 16:48:00,83.7,49.8,30.18,ESE,107,8.7,8.7,31,0.00,,---,0.00,VWS V14.01,2013-09-10 20:48:00,
2013-09-10 16:49:00,83.7,49.8,30.18,ESE,107,8.7,8.7,31,0.00,,---,0.00,VWS V14.01,2013-09-10 20:49:00,
2013-09-10 16:50:00,83.7,49.8,30.18,ESE,111,6.3,6.3,31,0.00,,---,0.00,VWS V14.01,2013-09-10 20:50:00,
2013-09-10 16:51:00,83.7,49.8,30.18,SE,133,4.0,4.0,31,0.00,,---,0.00,VWS V14.01,2013-09-10 20:51:00,
2013-09-10 16:53:00,83.8,50.0,30.18,ESE,121,3.6,3.6,31,0.00,,---,0.00,VWS V14.01,2013-09-10 20:53:00,
2013-09-10 16:54:00,83.8,50.0,30.18,SE,126,5.8,5.8,31,0.00,,---,0.00,VWS V14.01,2013-09-10 20:54:00,
2013-09-10 16:55:00,83.8,50.0,30.18,SE,126,5.8,5.8,31,0.00,,---,0.00,VWS V14.01,2013-09-10 20:55:00,
2013-09-10 16:56:00,83.8,50.0,30.18,SE,126,5.8,5.8,31,0.00,,---,0.00,VWS V14.01,2013-09-10 20:56:00,
2013-09-10 16:58:00,83.8,50.0,30.18,SE,125,6.3,6.3,31,0.00,,---,0.00,VWS V14.01,2013-09-10 20:58:00,
2013-09-10 16:59:00,83.8,50.0,30.18,East,92,10.1,10.1,31,0.00,,---,0.00,VWS V14.01,2013-09-10 20:59:00,
2013-09-10 17:00:00,83.5,48.8,30.18,East,92,10.1,10.1,30,0.00,,---,0.00,VWS V14.01,2013-09-10 21:00:00,
2013-09-10 17:01:00,83.5,48.8,30.18,SE,130,10.1,10.1,30,0.00,,---,0.00,VWS V14.01,2013-09-10 21:01:00,
2013-09-10 17:03:00,83.3,48.7,30.18,SE,130,10.1,10.1,30,0.00,,---,0.00,VWS V14.01,2013-09-10 21:03:00,
2013-09-10 17:04:00,83.1,48.5,30.18,East,86,7.6,7.6,30,0.00,,---,0.00,VWS V14.01,2013-09-10 21:04:00,
2013-09-10 17:05:00,83.1,48.5,30.18,SE,141,5.4,8.7,30,0.00,,---,0.00,VWS V14.01,2013-09-10 21:05:00,
2013-09-10 17:06:00,83.1,48.5,30.18,SE,141,5.4,8.7,30,0.00,,---,0.00,VWS V14.01,2013-09-10 21:06:00,
2013-09-10 17:08:00,83.1,48.5,30.18,SE,133,11.0,11.0,30,0.00,,---,0.00,VWS V14.01,2013-09-10 21:08:00,
2013-09-10 17:09:00,83.1,48.5,30.18,ESE,122,2.7,11.0,30,0.00,,---,0.00,VWS V14.01,2013-09-10 21:09:00,
2013-09-10 17:10:00,83.1,48.5,30.18,SE,126,3.6,3.6,30,0.00,,---,0.00,VWS V14.01,2013-09-10 21:10:00,
2013-09-10 17:11:00,83.1,48.5,30.18,SE,128,3.6,3.6,30,0.00,,---,0.00,VWS V14.01,2013-09-10 21:11:00,
2013-09-10 17:13:00,83.1,49.4,30.18,ESE,112,3.1,3.1,31,0.00,,---,0.00,VWS V14.01,2013-09-10 21:13:00,
2013-09-10 17:14:00,83.1,49.4,30.18,SSE,148,7.6,7.6,31,0.00,,---,0.00,VWS V14.01,2013-09-10 21:14:00,
2013-09-10 17:15:00,83.1,49.4,30.18,SE,134,5.4,5.4,31,0.00,,---,0.00,VWS V14.01,2013-09-10 21:15:00,
2013-09-10 17:16:00,83.1,49.4,30.18,East,101,8.1,8.1,31,0.00,,---,0.00,VWS V14.01,2013-09-10 21:16:00,
2013-09-10 17:18:00,83.1,49.4,30.18,SE,130,4.9,5.8,31,0.00,,---,0.00,VWS V14.01,2013-09-10 21:18:00,
2013-09-10 17:19:00,83.1,49.4,30.18,East,82,5.8,5.8,31,0.00,,---,0.00,VWS V14.01,2013-09-10 21:19:00,
2013-09-10 17:20:00,83.1,49.4,30.18,East,82,5.8,5.8,31,0.00,,---,0.00,VWS V14.01,2013-09-10 21:20:00,
2013-09-10 17:21:00,83.1,49.4,30.18,East,82,5.8,5.8,31,0.00,,---,0.00,VWS V14.01,2013-09-10 21:21:00,
2013-09-10 17:23:00,83.1,49.4,30.18,SSE,162,5.4,5.4,31,0.00,,---,0.00,VWS V14.01,2013-09-10 21:23:00,
2013-09-10 17:24:00,83.1,49.4,30.18,East,96,4.0,4.0,31,0.00,,---,0.00,VWS V14.01,2013-09-10 21:24:00,
2013-09-10 17:25:00,83.1,48.5,30.18,ESE,106,3.6,3.6,30,0.00,,---,0.00,VWS V14.01,2013-09-10 21:25:00,
2013-09-10 17:26:00,83.1,48.5,30.18,ESE,106,3.6,3.6,30,0.00,,---,0.00,VWS V14.01,2013-09-10 21:26:00,
2013-09-10 17:28:00,82.9,48.3,30.18,SE,127,5.8,5.8,30,0.00,,---,0.00,VWS V14.01,2013-09-10 21:28:00,
2013-09-10 17:29:00,82.9,48.3,30.18,ESE,112,7.6,7.6,30,0.00,,---,0.00,VWS V14.01,2013-09-10 21:29:00,
2013-09-10 17:30:00,82.9,48.3,30.18,East,85,4.9,4.9,30,0.00,,---,0.00,VWS V14.01,2013-09-10 21:30:00,
2013-09-10 17:32:00,82.9,48.3,30.18,ESE,102,7.2,7.2,30,0.00,,---,0.00,VWS V14.01,2013-09-10 21:32:00,
2013-09-10 17:33:00,82.9,48.3,30.18,ESE,113,4.0,11.0,30,0.00,,---,0.00,VWS V14.01,2013-09-10 21:33:00,
2013-09-10 17:34:00,82.9,48.3,30.18,SSE,159,6.3,6.3,30,0.00,,---,0.00,VWS V14.01,2013-09-10 21:34:00,
2013-09-10 17:35:00,82.8,49.1,30.18,SSE,159,6.3,6.3,31,0.00,,---,0.00,VWS V14.01,2013-09-10 21:35:00,
2013-09-10 17:37:00,82.8,49.1,30.18,East,79,4.0,8.1,31,0.00,,---,0.00,VWS V14.01,2013-09-10 21:37:00,
2013-09-10 17:39:00,82.8,49.1,30.18,South,171,5.4,5.4,31,0.00,,---,0.00,VWS V14.01,2013-09-10 21:39:00,
2013-09-10 17:40:00,82.6,48.9,30.18,SSE,157,4.9,4.9,31,0.00,,---,0.00,VWS V14.01,2013-09-10 21:40:00,
2013-09-10 17:42:00,82.6,48.9,30.18,SSE,164,6.7,6.7,31,0.00,,---,0.00,VWS V14.01,2013-09-10 21:42:00,
2013-09-10 17:44:00,82.6,48.9,30.18,SE,129,7.6,7.6,31,0.00,,---,0.00,VWS V14.01,2013-09-10 21:44:00,
2013-09-10 17:45:00,82.6,48.9,30.18,ESE,116,10.5,10.5,31,0.00,,---,0.00,VWS V14.01,2013-09-10 21:45:00,
2013-09-10 17:47:00,82.2,49.5,30.18,SSE,168,4.9,4.9,32,0.00,,---,0.00,VWS V14.01,2013-09-10 21:47:00,
2013-09-10 17:49:00,82.2,49.5,30.18,SSE,168,4.9,4.9,32,0.00,,---,0.00,VWS V14.01,2013-09-10 21:49:00,
2013-09-10 17:50:00,82.2,49.5,30.18,SSE,168,4.9,4.9,32,0.00,,---,0.00,VWS V14.01,2013-09-10 21:50:00,
2013-09-10 17:52:00,82.2,49.5,30.18,SE,136,2.2,4.9,32,0.00,,---,0.00,VWS V14.01,2013-09-10 21:52:00,
2013-09-10 17:53:00,82.2,49.5,30.18,SE,136,2.2,2.2,32,0.00,,---,0.00,VWS V14.01,2013-09-10 21:53:00,
2013-09-10 17:54:00,82.2,49.5,30.18,East,92,5.4,8.7,32,0.00,,---,0.00,VWS V14.01,2013-09-10 21:54:00,
2013-09-10 17:55:00,82.2,49.5,30.18,SSE,155,6.3,6.3,32,0.00,,---,0.00,VWS V14.01,2013-09-10 21:55:00,
2013-09-10 17:58:00,82.2,49.5,30.18,SE,130,5.8,5.8,32,0.00,,---,0.00,VWS V14.01,2013-09-10 21:58:00,
2013-09-10 17:59:00,82.2,49.5,30.18,SE,135,3.6,5.8,32,0.00,,---,0.00,VWS V14.01,2013-09-10 21:59:00,
2013-09-10 18:00:00,82.2,49.5,30.18,SE,135,3.6,3.6,32,0.00,,---,0.00,VWS V14.01,2013-09-10 22:00:00,
2013-09-10 18:03:00,82.0,49.3,30.18,ESE,103,3.6,8.1,32,0.00,,---,0.00,VWS V14.01,2013-09-10 22:03:00,
2013-09-10 18:04:00,82.0,49.3,30.18,ESE,103,3.6,3.6,32,0.00,,---,0.00,VWS V14.01,2013-09-10 22:04:00,
2013-09-10 18:05:00,82.0,49.3,30.18,SE,125,3.6,3.6,32,0.00,,---,0.00,VWS V14.01,2013-09-10 22:05:00,
2013-09-10 18:08:00,82.0,48.5,30.18,East,101,4.0,6.3,31,0.00,,---,0.00,VWS V14.01,2013-09-10 22:08:00,
2013-09-10 18:09:00,82.0,48.5,30.18,East,83,3.6,4.0,31,0.00,,---,0.00,VWS V14.01,2013-09-10 22:09:00,
2013-09-10 18:10:00,82.0,49.3,30.18,East,96,2.7,3.6,32,0.00,,---,0.00,VWS V14.01,2013-09-10 22:10:00,
2013-09-10 18:13:00,81.9,49.1,30.18,East,87,2.7,4.0,32,0.00,,---,0.00,VWS V14.01,2013-09-10 22:13:00,
2013-09-10 18:14:00,81.9,49.1,30.18,NE,48,3.6,3.6,32,0.00,,---,0.00,VWS V14.01,2013-09-10 22:14:00,
2013-09-10 18:15:00,81.9,49.1,30.18,NE,48,3.6,3.6,32,0.00,,---,0.00,VWS V14.01,2013-09-10 22:15:00,
2013-09-10 18:18:00,81.9,49.1,30.18,East,89,2.2,2.2,32,0.00,,---,0.00,VWS V14.01,2013-09-10 22:18:00,
2013-09-10 18:19:00,81.9,49.1,30.18,SE,138,7.6,7.6,32,0.00,,---,0.00,VWS V14.01,2013-09-10 22:19:00,
2013-09-10 18:20:00,81.9,49.1,30.18,East,101,3.6,7.6,32,0.00,,---,0.00,VWS V14.01,2013-09-10 22:20:00,
2013-09-10 18:23:00,81.7,49.0,30.18,East,100,3.6,3.6,32,0.00,,---,0.00,VWS V14.01,2013-09-10 22:23:00,
2013-09-10 18:24:00,81.5,49.7,30.18,SE,138,7.6,7.6,33,0.00,,---,0.00,VWS V14.01,2013-09-10 22:24:00,
2013-09-10 18:25:00,81.5,49.7,30.18,SE,138,7.6,7.6,33,0.00,,---,0.00,VWS V14.01,2013-09-10 22:25:00,
2013-09-10 18:28:00,81.3,50.3,30.18,ESE,114,4.0,8.3,34,0.00,,---,0.00,VWS V14.01,2013-09-10 22:28:00,
2013-09-10 18:29:00,81.3,50.3,30.18,ESE,123,4.0,4.0,34,0.00,,---,0.00,VWS V14.01,2013-09-10 22:29:00,
2013-09-10 18:30:00,81.3,50.3,30.18,SE,139,4.5,6.3,34,0.00,,---,0.00,VWS V14.01,2013-09-10 22:30:00,
2013-09-10 18:34:00,81.1,52.4,30.18,ESE,104,2.7,2.7,37,0.00,,---,0.00,VWS V14.01,2013-09-10 22:34:00,
2013-09-10 18:35:00,81.1,52.4,30.18,ESE,104,2.7,2.7,37,0.00,,---,0.00,VWS V14.01,2013-09-10 22:35:00,
2013-09-10 18:40:00,81.0,53.0,30.18,East,98,4.0,4.0,38,0.00,,---,0.00,VWS V14.01,2013-09-10 22:40:00,
2013-09-10 18:41:00,81.0,53.0,30.18,ESE,111,3.1,3.1,38,0.00,,---,0.00,VWS V14.01,2013-09-10 22:41:00,
2013-09-10 18:45:00,80.6,53.4,30.18,SE,142,4.0,4.0,39,0.00,,---,0.00,VWS V14.01,2013-09-10 22:45:00,
2013-09-10 18:46:00,80.6,53.4,30.18,SE,142,4.0,4.0,39,0.00,,---,0.00,VWS V14.01,2013-09-10 22:46:00,
2013-09-10 18:50:00,80.4,53.2,30.18,ESE,110,5.4,5.4,39,0.00,,---,0.00,VWS V14.01,2013-09-10 22:50:00,
2013-09-10 18:51:00,80.4,53.2,30.18,SSE,147,3.1,5.4,39,0.00,,---,0.00,VWS V14.01,2013-09-10 22:51:00,
2013-09-10 18:55:00,80.2,53.8,30.18,South,179,4.0,4.0,40,0.00,,---,0.00,VWS V14.01,2013-09-10 22:55:00,
2013-09-10 18:56:00,80.2,53.8,30.18,SSW,208,2.7,4.0,40,0.00,,---,0.00,VWS V14.01,2013-09-10 22:56:00,
2013-09-10 18:57:00,80.2,53.8,30.18,SSW,208,2.7,2.7,40,0.00,,---,0.00,VWS V14.01,2013-09-10 22:57:00,
2013-09-10 19:00:00,80.1,53.6,30.18,ESE,114,4.0,6.3,40,0.00,,---,0.00,VWS V14.01,2013-09-10 23:00:00,
2013-09-10 19:01:00,80.1,53.6,30.18,East,101,3.1,4.0,40,0.00,,---,0.00,VWS V14.01,2013-09-10 23:01:00,
2013-09-10 19:02:00,80.1,53.6,30.18,East,101,3.1,3.1,40,0.00,,---,0.00,VWS V14.01,2013-09-10 23:02:00,
2013-09-10 19:05:00,79.9,53.4,30.18,SE,144,6.7,6.7,40,0.00,,---,0.00,VWS V14.01,2013-09-10 23:05:00,
2013-09-10 19:06:00,79.9,53.4,30.18,SE,144,6.7,6.7,40,0.00,,---,0.00,VWS V14.01,2013-09-10 23:06:00,
2013-09-10 19:07:00,79.9,54.1,30.18,ESE,117,2.7,6.7,41,0.00,,---,0.00,VWS V14.01,2013-09-10 23:07:00,
2013-09-10 19:10:00,79.7,53.9,30.18,SE,125,3.6,3.6,41,0.00,,---,0.00,VWS V14.01,2013-09-10 23:10:00,
2013-09-10 19:11:00,79.7,53.9,30.18,ESE,104,3.6,3.6,41,0.00,,---,0.00,VWS V14.01,2013-09-10 23:11:00,
2013-09-10 19:12:00,79.7,53.9,30.18,SE,129,2.7,3.6,41,0.00,,---,0.00,VWS V14.01,2013-09-10 23:12:00,
2013-09-10 19:15:00,79.5,53.8,30.18,East,99,2.7,2.7,41,0.00,,---,0.00,VWS V14.01,2013-09-10 23:15:00,
2013-09-10 19:16:00,79.5,53.8,30.18,SE,126,3.1,3.1,41,0.00,,---,0.00,VWS V14.01,2013-09-10 23:16:00,
2013-09-10 19:17:00,79.5,54.4,30.18,ESE,112,2.7,3.1,42,0.00,,---,0.00,VWS V14.01,2013-09-10 23:17:00,
2013-09-10 19:20:00,79.5,54.4,30.18,ESE,108,0.0,0.0,42,0.00,,---,0.00,VWS V14.01,2013-09-10 23:20:00,
2013-09-10 19:21:00,79.5,54.4,30.18,ESE,115,0.0,0.0,42,0.00,,---,0.00,VWS V14.01,2013-09-10 23:21:00,
2013-09-10 19:22:00,79.5,54.4,30.18,ESE,119,2.7,3.1,42,0.00,,---,0.00,VWS V14.01,2013-09-10 23:22:00,
2013-09-10 19:25:00,79.2,54.8,30.18,SE,146,2.7,2.7,43,0.00,,---,0.00,VWS V14.01,2013-09-10 23:25:00,
2013-09-10 19:26:00,79.2,54.8,30.18,ESE,118,4.0,4.0,43,0.00,,---,0.00,VWS V14.01,2013-09-10 23:26:00,
2013-09-10 19:27:00,79.2,54.8,30.18,ESE,122,3.1,3.1,43,0.00,,---,0.00,VWS V14.01,2013-09-10 23:27:00,
2013-09-10 19:30:00,79.2,54.8,30.18,South,169,3.1,3.1,43,0.00,,---,0.00,VWS V14.01,2013-09-10 23:30:00,
2013-09-10 19:31:00,79.2,54.8,30.18,South,169,3.1,3.1,43,0.00,,---,0.00,VWS V14.01,2013-09-10 23:31:00,
2013-09-10 19:32:00,79.0,54.6,30.18,South,169,3.1,3.1,43,0.00,,---,0.00,VWS V14.01,2013-09-10 23:32:00,
2013-09-10 19:35:00,78.8,55.1,30.18,ESE,113,2.7,2.7,44,0.00,,---,0.00,VWS V14.01,2013-09-10 23:35:00,
2013-09-10 19:36:00,78.8,55.1,30.18,SSE,160,4.9,4.9,44,0.00,,---,0.00,VWS V14.01,2013-09-10 23:36:00,
2013-09-10 19:38:00,78.8,55.1,30.18,SSE,149,5.4,5.4,44,0.00,,---,0.00,VWS V14.01,2013-09-10 23:38:00,
2013-09-10 19:41:00,78.6,54.9,30.18,SSE,167,6.3,6.3,44,0.00,,---,0.00,VWS V14.01,2013-09-10 23:41:00,
2013-09-10 19:43:00,78.6,54.9,30.18,SE,124,3.6,6.3,44,0.00,,---,0.00,VWS V14.01,2013-09-10 23:43:00,
2013-09-10 19:45:00,78.4,54.7,30.18,SE,124,3.6,3.6,44,0.00,,---,0.00,VWS V14.01,2013-09-10 23:45:00,
2013-09-10 19:46:00,78.4,54.7,30.18,East,79,2.2,3.6,44,0.00,,---,0.00,VWS V14.01,2013-09-10 23:46:00,
2013-09-10 19:48:00,78.4,54.7,30.18,East,80,0.0,2.2,44,0.00,,---,0.00,VWS V14.01,2013-09-10 23:48:00,
2013-09-10 19:51:00,78.4,55.4,30.18,SE,141,0.0,0.0,45,0.00,,---,0.00,VWS V14.01,2013-09-10 23:51:00,
2013-09-10 19:53:00,78.3,55.2,30.18,East,97,0.0,4.0,45,0.00,,---,0.00,VWS V14.01,2013-09-10 23:53:00,
2013-09-10 19:56:00,78.3,55.8,30.18,ESE,107,0.0,0.0,46,0.00,,---,0.00,VWS V14.01,2013-09-10 23:56:00,
2013-09-10 19:58:00,78.1,55.6,30.18,SE,125,0.0,0.0,46,0.00,,---,0.00,VWS V14.01,2013-09-10 23:58:00,
2013-09-10 20:01:00,78.1,55.6,30.18,SE,124,0.0,0.0,46,0.00,,---,0.00,VWS V14.01,2013-09-11 00:01:00,
2013-09-10 20:03:00,78.1,55.6,30.18,SE,124,0.0,0.0,46,0.00,,---,0.00,VWS V14.01,2013-09-11 00:03:00,
2013-09-10 20:06:00,77.9,55.5,30.18,SE,133,0.0,0.0,46,0.00,,---,0.00,VWS V14.01,2013-09-11 00:06:00,
2013-09-10 20:08:00,77.7,56.5,30.18,SE,137,0.0,0.0,48,0.00,,---,0.00,VWS V14.01,2013-09-11 00:08:00,
2013-09-10 20:11:00,77.7,56.5,30.18,SE,137,0.0,0.0,48,0.00,,---,0.00,VWS V14.01,2013-09-11 00:11:00,
2013-09-10 20:13:00,77.5,55.7,30.18,East,94,0.0,2.7,47,0.00,,---,0.00,VWS V14.01,2013-09-11 00:13:00,
2013-09-10 20:14:00,77.5,55.7,30.18,East,94,0.0,0.0,47,0.00,,---,0.00,VWS V14.01,2013-09-11 00:14:00,
2013-09-10 20:16:00,77.5,55.7,30.18,ESE,103,0.0,0.0,47,0.00,,---,0.00,VWS V14.01,2013-09-11 00:16:00,
2013-09-10 20:19:00,77.4,57.3,30.18,ESE,113,0.0,0.0,50,0.00,,---,0.00,VWS V14.01,2013-09-11 00:19:00,
2013-09-10 20:20:00,77.4,57.3,30.18,ESE,113,0.0,0.0,50,0.00,,---,0.00,VWS V14.01,2013-09-11 00:20:00,
2013-09-10 20:21:00,77.4,57.3,30.18,SE,135,0.0,0.0,50,0.00,,---,0.00,VWS V14.01,2013-09-11 00:21:00,
2013-09-10 20:24:00,77.4,57.3,30.18,SE,127,2.2,2.2,50,0.00,,---,0.00,VWS V14.01,2013-09-11 00:24:00,
2013-09-10 20:25:00,77.4,57.3,30.18,NE,43,3.1,3.1,50,0.00,,---,0.00,VWS V14.01,2013-09-11 00:25:00,
2013-09-10 20:26:00,77.4,57.3,30.18,SE,142,0.0,3.1,50,0.00,,---,0.00,VWS V14.01,2013-09-11 00:26:00,
2013-09-10 20:29:00,77.4,57.8,30.18,ESE,116,0.0,0.0,51,0.00,,---,0.00,VWS V14.01,2013-09-11 00:29:00,
2013-09-10 20:30:00,77.4,57.8,30.18,ESE,117,0.0,0.0,51,0.00,,---,0.00,VWS V14.01,2013-09-11 00:30:00,
2013-09-10 20:31:00,77.4,57.8,30.18,ESE,117,0.0,0.0,51,0.00,,---,0.00,VWS V14.01,2013-09-11 00:31:00,
2013-09-10 20:34:00,77.2,57.7,30.18,ESE,117,0.0,0.0,51,0.00,,---,0.00,VWS V14.01,2013-09-11 00:34:00,
2013-09-10 20:35:00,77.2,57.7,30.18,ESE,114,4.0,4.0,51,0.00,,---,0.00,VWS V14.01,2013-09-11 00:35:00,
2013-09-10 20:36:00,77.2,57.7,30.18,ESE,114,0.0,4.0,51,0.00,,---,0.00,VWS V14.01,2013-09-11 00:36:00,
2013-09-10 20:37:00,77.2,57.7,30.18,ESE,114,0.0,0.0,51,0.00,,---,0.00,VWS V14.01,2013-09-11 00:37:00,
2013-09-10 20:39:00,77.0,57.5,30.18,ESE,118,0.0,0.0,51,0.00,,---,0.00,VWS V14.01,2013-09-11 00:39:00,
2013-09-10 20:41:00,77.0,57.5,30.18,ESE,119,0.0,3.1,51,0.00,,---,0.00,VWS V14.01,2013-09-11 00:41:00,
2013-09-10 20:42:00,77.0,57.5,30.18,ESE,119,0.0,0.0,51,0.00,,---,0.00,VWS V14.01,2013-09-11 00:42:00,
2013-09-10 20:44:00,76.8,58.4,30.18,ESE,119,0.0,0.0,53,0.00,,---,0.00,VWS V14.01,2013-09-11 00:44:00,
2013-09-10 20:46:00,76.8,57.9,30.18,ESE,119,0.0,0.0,52,0.00,,---,0.00,VWS V14.01,2013-09-11 00:46:00,
2013-09-10 20:47:00,76.8,58.4,30.18,ESE,119,0.0,0.0,53,0.00,,---,0.00,VWS V14.01,2013-09-11 00:47:00,
2013-09-10 20:50:00,76.6,57.7,30.18,ESE,120,0.0,0.0,52,0.00,,---,0.00,VWS V14.01,2013-09-11 00:50:00,
2013-09-10 20:51:00,76.6,57.7,30.18,ESE,103,0.0,0.0,52,0.00,,---,0.00,VWS V14.01,2013-09-11 00:51:00,
2013-09-10 20:52:00,76.6,57.7,30.18,ESE,103,0.0,0.0,52,0.00,,---,0.00,VWS V14.01,2013-09-11 00:52:00,
2013-09-10 20:55:00,76.3,57.9,30.18,ESE,118,0.0,0.0,53,0.00,,---,0.00,VWS V14.01,2013-09-11 00:55:00,
2013-09-10 20:56:00,76.3,58.4,30.18,ESE,118,0.0,0.0,54,0.00,,---,0.00,VWS V14.01,2013-09-11 00:56:00,
2013-09-10 20:57:00,76.3,58.4,30.18,ESE,117,0.0,0.0,54,0.00,,---,0.00,VWS V14.01,2013-09-11 00:57:00,
2013-09-10 21:00:00,76.1,57.8,30.18,ESE,118,0.0,0.0,53,0.00,,---,0.00,VWS V14.01,2013-09-11 01:00:00,
2013-09-10 21:01:00,76.1,57.8,30.18,ESE,118,0.0,0.0,53,0.00,,---,0.00,VWS V14.01,2013-09-11 01:01:00,
2013-09-10 21:02:00,76.1,57.8,30.18,ESE,118,0.0,0.0,53,0.00,,---,0.00,VWS V14.01,2013-09-11 01:02:00,
2013-09-10 21:05:00,75.9,58.6,30.18,ESE,117,0.0,0.0,55,0.00,,---,0.00,VWS V14.01,2013-09-11 01:05:00,
2013-09-10 21:06:00,75.9,58.6,30.18,SE,135,4.0,4.0,55,0.00,,---,0.00,VWS V14.01,2013-09-11 01:06:00,
2013-09-10 21:07:00,75.9,59.6,30.18,SE,135,4.0,4.0,57,0.00,,---,0.00,VWS V14.01,2013-09-11 01:07:00,
2013-09-10 21:10:00,75.9,60.1,30.21,East,81,0.0,0.0,58,0.00,,---,0.00,VWS V14.01,2013-09-11 01:10:00,
2013-09-10 21:11:00,76.1,60.3,30.21,East,81,0.0,0.0,58,0.00,,---,0.00,VWS V14.01,2013-09-11 01:11:00,
2013-09-10 21:12:00,76.1,60.3,30.21,ESE,119,0.0,0.0,58,0.00,,---,0.00,VWS V14.01,2013-09-11 01:12:00,
2013-09-10 21:16:00,76.1,59.3,30.21,ESE,119,0.0,0.0,56,0.00,,---,0.00,VWS V14.01,2013-09-11 01:16:00,
2013-09-10 21:17:00,76.1,59.3,30.21,ESE,119,0.0,0.0,56,0.00,,---,0.00,VWS V14.01,2013-09-11 01:17:00,
2013-09-10 21:21:00,75.9,59.1,30.21,ESE,119,0.0,0.0,56,0.00,,---,0.00,VWS V14.01,2013-09-11 01:21:00,
2013-09-10 21:22:00,75.9,59.1,30.21,ESE,119,0.0,0.0,56,0.00,,---,0.00,VWS V14.01,2013-09-11 01:22:00,
2013-09-10 21:26:00,75.4,58.6,30.21,NE,46,0.0,0.0,56,0.00,,---,0.00,VWS V14.01,2013-09-11 01:26:00,
2013-09-10 21:27:00,75.4,58.6,30.21,NE,46,0.0,0.0,56,0.00,,---,0.00,VWS V14.01,2013-09-11 01:27:00,
2013-09-10 21:31:00,75.4,58.6,30.21,East,90,0.0,0.0,56,0.00,,---,0.00,VWS V14.01,2013-09-11 01:31:00,
2013-09-10 21:32:00,75.0,58.3,30.21,East,90,0.0,0.0,56,0.00,,---,0.00,VWS V14.01,2013-09-11 01:32:00,
2013-09-10 21:36:00,74.8,58.1,30.21,East,90,0.0,0.0,56,0.00,,---,0.00,VWS V14.01,2013-09-11 01:36:00,
2013-09-10 21:37:00,74.7,57.9,30.21,East,90,0.0,0.0,56,0.00,,---,0.00,VWS V14.01,2013-09-11 01:37:00,
2013-09-10 21:41:00,74.5,57.8,30.21,East,90,0.0,0.0,56,0.00,,---,0.00,VWS V14.01,2013-09-11 01:41:00,
2013-09-10 21:42:00,74.1,57.4,30.21,East,90,0.0,0.0,56,0.00,,---,0.00,VWS V14.01,2013-09-11 01:42:00,
2013-09-10 21:46:00,73.9,57.3,30.21,East,90,0.0,0.0,56,0.00,,---,0.00,VWS V14.01,2013-09-11 01:46:00,
2013-09-10 21:47:00,73.8,57.1,30.21,East,90,0.0,0.0,56,0.00,,---,0.00,VWS V14.01,2013-09-11 01:47:00,
2013-09-10 21:48:00,73.8,57.1,30.21,East,90,0.0,0.0,56,0.00,,---,0.00,VWS V14.01,2013-09-11 01:48:00,
2013-09-10 21:51:00,73.4,56.8,30.21,East,90,0.0,0.0,56,0.00,,---,0.00,VWS V14.01,2013-09-11 01:51:00,
2013-09-10 21:52:00,73.4,56.8,30.21,East,90,0.0,0.0,56,0.00,,---,0.00,VWS V14.01,2013-09-11 01:52:00,
2013-09-10 21:53:00,73.2,57.1,30.21,East,90,0.0,0.0,57,0.00,,---,0.00,VWS V14.01,2013-09-11 01:53:00,
2013-09-10 21:56:00,73.0,56.9,30.21,East,90,0.0,0.0,57,0.00,,---,0.00,VWS V14.01,2013-09-11 01:56:00,
2013-09-10 21:57:00,73.0,56.9,30.21,East,90,0.0,0.0,57,0.00,,---,0.00,VWS V14.01,2013-09-11 01:57:00,
2013-09-10 21:58:00,72.9,57.2,30.21,East,90,0.0,0.0,58,0.00,,---,0.00,VWS V14.01,2013-09-11 01:58:00,
2013-09-10 22:01:00,72.9,57.2,30.21,East,90,0.0,0.0,58,0.00,,---,0.00,VWS V14.01,2013-09-11 02:01:00,
2013-09-10 22:02:00,72.7,57.1,30.21,East,90,0.0,0.0,58,0.00,,---,0.00,VWS V14.01,2013-09-11 02:02:00,
2013-09-10 22:03:00,72.7,57.1,30.21,East,90,0.0,0.0,58,0.00,,---,0.00,VWS V14.01,2013-09-11 02:03:00,
2013-09-10 22:06:00,72.5,57.4,30.21,NNE,22,0.0,0.0,59,0.00,,---,0.00,VWS V14.01,2013-09-11 02:06:00,
2013-09-10 22:07:00,72.5,57.4,30.21,NNE,22,0.0,0.0,59,0.00,,---,0.00,VWS V14.01,2013-09-11 02:07:00,
2013-09-10 22:08:00,72.5,57.4,30.21,NNE,22,0.0,0.0,59,0.00,,---,0.00,VWS V14.01,2013-09-11 02:08:00,
2013-09-10 22:11:00,72.5,57.4,30.21,NNE,22,0.0,0.0,59,0.00,,---,0.00,VWS V14.01,2013-09-11 02:11:00,
2013-09-10 22:12:00,72.5,57.4,30.21,NNE,22,0.0,0.0,59,0.00,,---,0.00,VWS V14.01,2013-09-11 02:12:00,
2013-09-10 22:13:00,72.5,57.4,30.21,NNE,22,0.0,0.0,59,0.00,,---,0.00,VWS V14.01,2013-09-11 02:13:00,
2013-09-10 22:16:00,72.1,57.5,30.21,NNE,22,0.0,0.0,60,0.00,,---,0.00,VWS V14.01,2013-09-11 02:16:00,
2013-09-10 22:17:00,72.1,57.5,30.21,NNE,22,0.0,0.0,60,0.00,,---,0.00,VWS V14.01,2013-09-11 02:17:00,
2013-09-10 22:18:00,72.1,57.5,30.21,NNE,22,0.0,0.0,60,0.00,,---,0.00,VWS V14.01,2013-09-11 02:18:00,
2013-09-10 22:21:00,71.8,57.6,30.21,NNE,22,0.0,0.0,61,0.00,,---,0.00,VWS V14.01,2013-09-11 02:21:00,
2013-09-10 22:22:00,71.8,57.6,30.21,NNE,22,0.0,0.0,61,0.00,,---,0.00,VWS V14.01,2013-09-11 02:22:00,
2013-09-10 22:23:00,71.8,57.6,30.21,NNE,22,0.0,0.0,61,0.00,,---,0.00,VWS V14.01,2013-09-11 02:23:00,
2013-09-10 22:26:00,71.6,57.5,30.21,NNE,22,0.0,0.0,61,0.00,,---,0.00,VWS V14.01,2013-09-11 02:26:00,
2013-09-10 22:27:00,71.6,57.5,30.21,NNE,22,0.0,0.0,61,0.00,,---,0.00,VWS V14.01,2013-09-11 02:27:00,
2013-09-10 22:28:00,71.6,57.5,30.21,NNE,22,0.0,0.0,61,0.00,,---,0.00,VWS V14.01,2013-09-11 02:28:00,
2013-09-10 22:31:00,71.4,57.7,30.21,NNE,22,0.0,0.0,62,0.00,,---,0.00,VWS V14.01,2013-09-11 02:31:00,
2013-09-10 22:32:00,71.4,57.7,30.21,NNE,22,0.0,0.0,62,0.00,,---,0.00,VWS V14.01,2013-09-11 02:32:00,
2013-09-10 22:33:00,71.4,57.7,30.21,NNE,22,0.0,0.0,62,0.00,,---,0.00,VWS V14.01,2013-09-11 02:33:00,
2013-09-10 22:36:00,71.4,57.7,30.21,NNE,22,0.0,0.0,62,0.00,,---,0.00,VWS V14.01,2013-09-11 02:36:00,
2013-09-10 22:37:00,71.4,57.7,30.21,NNE,22,0.0,0.0,62,0.00,,---,0.00,VWS V14.01,2013-09-11 02:37:00,
2013-09-10 22:38:00,71.2,58.0,30.21,NNE,22,0.0,0.0,63,0.00,,---,0.00,VWS V14.01,2013-09-11 02:38:00,
2013-09-10 22:39:00,71.2,58.0,30.21,NNE,22,0.0,0.0,63,0.00,,---,0.00,VWS V14.01,2013-09-11 02:39:00,
2013-09-10 22:41:00,71.2,58.0,30.21,NNE,22,0.0,0.0,63,0.00,,---,0.00,VWS V14.01,2013-09-11 02:41:00,
2013-09-10 22:42:00,71.2,58.0,30.21,NNE,22,0.0,0.0,63,0.00,,---,0.00,VWS V14.01,2013-09-11 02:42:00,
2013-09-10 22:43:00,71.2,58.0,30.21,NNE,22,0.0,0.0,63,0.00,,---,0.00,VWS V14.01,2013-09-11 02:43:00,
2013-09-10 22:44:00,71.1,57.8,30.21,NNE,22,0.0,0.0,63,0.00,,---,0.00,VWS V14.01,2013-09-11 02:44:00,
2013-09-10 22:46:00,71.1,58.3,30.21,NNE,22,0.0,0.0,64,0.00,,---,0.00,VWS V14.01,2013-09-11 02:46:00,
2013-09-10 22:47:00,71.1,58.3,30.21,NNE,22,0.0,0.0,64,0.00,,---,0.00,VWS V14.01,2013-09-11 02:47:00,
2013-09-10 22:48:00,71.1,58.3,30.21,NNE,22,0.0,0.0,64,0.00,,---,0.00,VWS V14.01,2013-09-11 02:48:00,
2013-09-10 22:49:00,71.1,58.3,30.21,NNE,22,0.0,0.0,64,0.00,,---,0.00,VWS V14.01,2013-09-11 02:49:00,
2013-09-10 22:51:00,71.1,58.3,30.21,NNE,22,0.0,0.0,64,0.00,,---,0.00,VWS V14.01,2013-09-11 02:51:00,
2013-09-10 22:52:00,71.1,58.3,30.21,NNE,22,0.0,0.0,64,0.00,,---,0.00,VWS V14.01,2013-09-11 02:52:00,
2013-09-10 22:53:00,71.1,58.3,30.21,NNE,22,0.0,0.0,64,0.00,,---,0.00,VWS V14.01,2013-09-11 02:53:00,
2013-09-10 22:54:00,70.9,58.5,30.21,NNE,22,0.0,0.0,65,0.00,,---,0.00,VWS V14.01,2013-09-11 02:54:00,
2013-09-10 22:56:00,70.9,58.5,30.21,NNE,22,0.0,0.0,65,0.00,,---,0.00,VWS V14.01,2013-09-11 02:56:00,
2013-09-10 22:57:00,70.9,58.5,30.21,NNE,22,0.0,0.0,65,0.00,,---,0.00,VWS V14.01,2013-09-11 02:57:00,
2013-09-10 22:59:00,70.9,58.5,30.21,NNE,22,0.0,0.0,65,0.00,,---,0.00,VWS V14.01,2013-09-11 02:59:00,
2013-09-10 23:01:00,70.7,58.8,30.21,NNE,22,0.0,0.0,66,0.00,,---,0.00,VWS V14.01,2013-09-11 03:01:00,
2013-09-10 23:02:00,70.7,58.8,30.21,NNE,22,0.0,0.0,66,0.00,,---,0.00,VWS V14.01,2013-09-11 03:02:00,
2013-09-10 23:04:00,70.7,58.8,30.21,NNE,22,0.0,0.0,66,0.00,,---,0.00,VWS V14.01,2013-09-11 03:04:00,
2013-09-10 23:06:00,70.5,58.6,30.21,NNE,22,0.0,0.0,66,0.00,,---,0.00,VWS V14.01,2013-09-11 03:06:00,
2013-09-10 23:07:00,70.5,58.6,30.21,NNE,22,0.0,0.0,66,0.00,,---,0.00,VWS V14.01,2013-09-11 03:07:00,
2013-09-10 23:09:00,70.5,59.0,30.21,NNE,22,0.0,0.0,67,0.00,,---,0.00,VWS V14.01,2013-09-11 03:09:00,
2013-09-10 23:10:00,70.5,59.0,30.21,NNE,22,0.0,0.0,67,0.00,,---,0.00,VWS V14.01,2013-09-11 03:10:00,
2013-09-10 23:11:00,70.5,59.0,30.21,NNE,22,0.0,0.0,67,0.00,,---,0.00,VWS V14.01,2013-09-11 03:11:00,
2013-09-10 23:12:00,70.5,59.0,30.21,NNE,22,0.0,0.0,67,0.00,,---,0.00,VWS V14.01,2013-09-11 03:12:00,
2013-09-10 23:14:00,70.3,58.9,30.21,NNE,22,0.0,0.0,67,0.00,,---,0.00,VWS V14.01,2013-09-11 03:14:00,
2013-09-10 23:15:00,70.3,58.9,30.21,NNE,22,0.0,0.0,67,0.00,,---,0.00,VWS V14.01,2013-09-11 03:15:00,
2013-09-10 23:16:00,70.3,58.9,30.21,NNE,22,0.0,0.0,67,0.00,,---,0.00,VWS V14.01,2013-09-11 03:16:00,
2013-09-10 23:17:00,70.3,58.9,30.21,NNE,22,0.0,0.0,67,0.00,,---,0.00,VWS V14.01,2013-09-11 03:17:00,
2013-09-10 23:19:00,70.3,59.3,30.21,NNE,22,0.0,0.0,68,0.00,,---,0.00,VWS V14.01,2013-09-11 03:19:00,
2013-09-10 23:20:00,70.3,59.3,30.21,NNE,22,0.0,0.0,68,0.00,,---,0.00,VWS V14.01,2013-09-11 03:20:00,
2013-09-10 23:21:00,70.3,59.3,30.21,NNE,22,0.0,0.0,68,0.00,,---,0.00,VWS V14.01,2013-09-11 03:21:00,
2013-09-10 23:22:00,70.3,59.3,30.21,NNE,22,0.0,0.0,68,0.00,,---,0.00,VWS V14.01,2013-09-11 03:22:00,
2013-09-10 23:24:00,70.3,59.3,30.21,NNE,22,0.0,0.0,68,0.00,,---,0.00,VWS V14.01,2013-09-11 03:24:00,
2013-09-10 23:25:00,70.2,59.1,30.21,NNE,22,0.0,0.0,68,0.00,,---,0.00,VWS V14.01,2013-09-11 03:25:00,
2013-09-10 23:26:00,70.2,59.1,30.21,NNE,22,0.0,0.0,68,0.00,,---,0.00,VWS V14.01,2013-09-11 03:26:00,
2013-09-10 23:27:00,70.0,59.0,30.21,NNE,22,0.0,0.0,68,0.00,,---,0.00,VWS V14.01,2013-09-11 03:27:00,
2013-09-10 23:29:00,70.0,59.3,30.21,NNE,22,0.0,0.0,69,0.00,,---,0.00,VWS V14.01,2013-09-11 03:29:00,
2013-09-10 23:30:00,70.0,59.3,30.21,NNE,22,0.0,0.0,69,0.00,,---,0.00,VWS V14.01,2013-09-11 03:30:00,
2013-09-10 23:31:00,70.0,59.3,30.21,NNE,22,0.0,0.0,69,0.00,,---,0.00,VWS V14.01,2013-09-11 03:31:00,
2013-09-10 23:32:00,70.0,59.3,30.21,NNE,22,0.0,0.0,69,0.00,,---,0.00,VWS V14.01,2013-09-11 03:32:00,
2013-09-10 23:34:00,70.0,59.8,30.21,NNE,22,0.0,0.0,70,0.00,,---,0.00,VWS V14.01,2013-09-11 03:34:00,
2013-09-10 23:35:00,69.8,59.6,30.21,NNE,22,0.0,0.0,70,0.00,,---,0.00,VWS V14.01,2013-09-11 03:35:00,
2013-09-10 23:36:00,69.8,59.6,30.21,NNE,22,0.0,0.0,70,0.00,,---,0.00,VWS V14.01,2013-09-11 03:36:00,
2013-09-10 23:37:00,69.8,59.6,30.21,NNE,22,0.0,0.0,70,0.00,,---,0.00,VWS V14.01,2013-09-11 03:37:00,
2013-09-10 23:39:00,69.8,59.6,30.21,NNE,22,0.0,0.0,70,0.00,,---,0.00,VWS V14.01,2013-09-11 03:39:00,
2013-09-10 23:40:00,69.8,60.0,30.21,NNE,22,0.0,0.0,71,0.00,,---,0.00,VWS V14.01,2013-09-11 03:40:00,
2013-09-10 23:41:00,69.8,60.0,30.21,NNE,22,0.0,0.0,71,0.00,,---,0.00,VWS V14.01,2013-09-11 03:41:00,
2013-09-10 23:42:00,69.8,60.0,30.21,NNE,22,0.0,0.0,71,0.00,,---,0.00,VWS V14.01,2013-09-11 03:42:00,
2013-09-10 23:44:00,69.8,60.0,30.21,NNE,22,0.0,0.0,71,0.00,,---,0.00,VWS V14.01,2013-09-11 03:44:00,
2013-09-10 23:45:00,69.8,60.0,30.21,NNE,22,0.0,0.0,71,0.00,,---,0.00,VWS V14.01,2013-09-11 03:45:00,
2013-09-10 23:47:00,69.8,60.0,30.21,NNE,22,0.0,0.0,71,0.00,,---,0.00,VWS V14.01,2013-09-11 03:47:00,
2013-09-10 23:49:00,69.8,60.0,30.21,NNE,22,0.0,0.0,71,0.00,,---,0.00,VWS V14.01,2013-09-11 03:49:00,
2013-09-10 23:50:00,69.8,60.0,30.21,NNE,22,0.0,0.0,71,0.00,,---,0.00,VWS V14.01,2013-09-11 03:50:00,
2013-09-10 23:52:00,69.8,60.0,30.21,NNE,22,0.0,0.0,71,0.00,,---,0.00,VWS V14.01,2013-09-11 03:52:00,
2013-09-10 23:54:00,69.6,60.2,30.21,NNE,22,0.0,0.0,72,0.00,,---,0.00,VWS V14.01,2013-09-11 03:54:00,
2013-09-10 23:55:00,69.6,60.2,30.21,NNE,22,0.0,0.0,72,0.00,,---,0.00,VWS V14.01,2013-09-11 03:55:00,
2013-09-10 23:56:00,69.6,60.2,30.21,NNE,22,0.0,0.0,72,0.00,,---,0.00,VWS V14.01,2013-09-11 03:56:00,
2013-09-10 23:57:00,69.6,60.2,30.21,NNE,22,0.0,0.0,72,0.00,,---,0.00,VWS V14.01,2013-09-11 03:57:00,
2013-09-10 23:59:00,69.6,60.2,30.21,NNE,22,0.0,0.0,72,0.00,,---,0.00,VWS V14.01,2013-09-11 03:59:00,